<?xml version='1.0' encoding='UTF-8'?><gpx version="1.1" creator="JPX - https://github.com/jenetics/jpx" xmlns="http://www.topografix.com/GPX/1/1"><trk><trkseg><trkpt lat="43.77325" lon="11.2631"><ele>59.0</ele><time>2026-04-14T16:08:09.245Z</time></trkpt><trkpt lat="43.7734383" lon="11.2630267"><ele>59.00000000000001</ele><time>2026-04-14T16:08:10.926Z</time></trkpt><trkpt lat="43.7733733" lon="11.26302"><ele>59.00000000000001</ele><time>2026-04-14T16:08:21.926Z</time></trkpt><trkpt lat="43.77331" lon="11.262965"><ele>59.0</ele><time>2026-04-14T16:08:24.926Z</time></trkpt><trkpt lat="43.7732467" lon="11.2629"><ele>59.0</ele><time>2026-04-14T16:08:29.926Z</time></trkpt><trkpt lat="43.77317" lon="11.2628267"><ele>59.0</ele><time>2026-04-14T16:08:32.927Z</time></trkpt><trkpt lat="43.77311" lon="11.26277"><ele>59.0</ele><time>2026-04-14T16:08:34.927Z</time></trkpt><trkpt lat="43.7730467" lon="11.2627083"><ele>59.0</ele><time>2026-04-14T16:08:37.927Z</time></trkpt><trkpt lat="43.7729867" lon="11.26265"><ele>59.0</ele><time>2026-04-14T16:08:40.926Z</time></trkpt><trkpt lat="43.7729167" lon="11.262595"><ele>59.0</ele><time>2026-04-14T16:08:43.926Z</time></trkpt><trkpt lat="43.7728617" lon="11.2625517"><ele>59.0</ele><time>2026-04-14T16:08:45.926Z</time></trkpt><trkpt lat="43.7728067" lon="11.2625083"><ele>59.0</ele><time>2026-04-14T16:08:47.926Z</time></trkpt><trkpt lat="43.77275" lon="11.262465"><ele>59.00000000000001</ele><time>2026-04-14T16:08:49.927Z</time></trkpt><trkpt lat="43.7726633" lon="11.2623983"><ele>59.0</ele><time>2026-04-14T16:08:52.926Z</time></trkpt><trkpt lat="43.7725783" lon="11.2623417"><ele>59.0</ele><time>2026-04-14T16:08:56.927Z</time></trkpt><trkpt lat="43.7724983" lon="11.2623017"><ele>59.0</ele><time>2026-04-14T16:08:59.926Z</time></trkpt><trkpt lat="43.772415" lon="11.2622717"><ele>59.00000000000001</ele><time>2026-04-14T16:09:02.926Z</time></trkpt><trkpt lat="43.77235" lon="11.2622167"><ele>59.0</ele><time>2026-04-14T16:09:05.926Z</time></trkpt><trkpt lat="43.7722883" lon="11.2621717"><ele>59.00000000000001</ele><time>2026-04-14T16:09:07.926Z</time></trkpt><trkpt lat="43.7722217" lon="11.26212"><ele>59.0</ele><time>2026-04-14T16:09:09.927Z</time></trkpt><trkpt lat="43.7721517" lon="11.2620767"><ele>59.0</ele><time>2026-04-14T16:09:11.926Z</time></trkpt><trkpt lat="43.7720733" lon="11.262015"><ele>59.0</ele><time>2026-04-14T16:09:14.927Z</time></trkpt><trkpt lat="43.7720133" lon="11.26197"><ele>59.00000000000001</ele><time>2026-04-14T16:09:16.926Z</time></trkpt><trkpt lat="43.77193" lon="11.2619067"><ele>59.0</ele><time>2026-04-14T16:09:19.926Z</time></trkpt><trkpt lat="43.7718717" lon="11.26186"><ele>59.16666666666667</ele><time>2026-04-14T16:09:21.927Z</time></trkpt><trkpt lat="43.7718083" lon="11.261865"><ele>59.333333333333336</ele><time>2026-04-14T16:09:28.926Z</time></trkpt><trkpt lat="43.7717883" lon="11.2619783"><ele>59.5</ele><time>2026-04-14T16:09:32.926Z</time></trkpt><trkpt lat="43.77175" lon="11.2620817"><ele>59.66666666666667</ele><time>2026-04-14T16:09:35.926Z</time></trkpt><trkpt lat="43.771685" lon="11.262145"><ele>59.833333333333336</ele><time>2026-04-14T16:09:38.926Z</time></trkpt><trkpt lat="43.7716333" lon="11.2621967"><ele>60.0</ele><time>2026-04-14T16:09:41.926Z</time></trkpt><trkpt lat="43.771595" lon="11.262295"><ele>59.333333333333336</ele><time>2026-04-14T16:09:44.926Z</time></trkpt><trkpt lat="43.77153" lon="11.2623483"><ele>58.66666666666667</ele><time>2026-04-14T16:09:47.926Z</time></trkpt><trkpt lat="43.771525" lon="11.26247"><ele>58.0</ele><time>2026-04-14T16:09:51.927Z</time></trkpt><trkpt lat="43.7715083" lon="11.2625933"><ele>57.333333333333336</ele><time>2026-04-14T16:09:54.927Z</time></trkpt><trkpt lat="43.7714933" lon="11.2627"><ele>56.66666666666667</ele><time>2026-04-14T16:09:57.926Z</time></trkpt><trkpt lat="43.7714783" lon="11.2627917"><ele>56.0</ele><time>2026-04-14T16:10:00.926Z</time></trkpt><trkpt lat="43.771475" lon="11.2629067"><ele>56.00000000000001</ele><time>2026-04-14T16:10:03.927Z</time></trkpt><trkpt lat="43.7714767" lon="11.2630233"><ele>56.0</ele><time>2026-04-14T16:10:06.926Z</time></trkpt><trkpt lat="43.7714783" lon="11.26315"><ele>56.0</ele><time>2026-04-14T16:10:09.926Z</time></trkpt><trkpt lat="43.7714617" lon="11.2632667"><ele>56.0</ele><time>2026-04-14T16:10:12.926Z</time></trkpt><trkpt lat="43.771445" lon="11.2633667"><ele>56.00000000000001</ele><time>2026-04-14T16:10:15.926Z</time></trkpt><trkpt lat="43.77145" lon="11.26347"><ele>56.0</ele><time>2026-04-14T16:10:18.926Z</time></trkpt><trkpt lat="43.77146" lon="11.263565"><ele>56.00000000000001</ele><time>2026-04-14T16:10:21.926Z</time></trkpt><trkpt lat="43.7714717" lon="11.263675"><ele>56.0</ele><time>2026-04-14T16:10:24.926Z</time></trkpt><trkpt lat="43.77148" lon="11.26379"><ele>56.0</ele><time>2026-04-14T16:10:27.927Z</time></trkpt><trkpt lat="43.771485" lon="11.2639183"><ele>56.0</ele><time>2026-04-14T16:10:30.926Z</time></trkpt><trkpt lat="43.7714983" lon="11.2640383"><ele>56.00000000000001</ele><time>2026-04-14T16:10:33.927Z</time></trkpt><trkpt lat="43.7715117" lon="11.2641483"><ele>56.0</ele><time>2026-04-14T16:10:36.926Z</time></trkpt><trkpt lat="43.771495" lon="11.2642617"><ele>56.00000000000001</ele><time>2026-04-14T16:10:39.926Z</time></trkpt><trkpt lat="43.7714733" lon="11.2643667"><ele>56.0</ele><time>2026-04-14T16:10:42.926Z</time></trkpt><trkpt lat="43.7715067" lon="11.2644467"><ele>56.0</ele><time>2026-04-14T16:10:44.927Z</time></trkpt><trkpt lat="43.77152" lon="11.264565"><ele>56.0</ele><time>2026-04-14T16:10:47.927Z</time></trkpt><trkpt lat="43.771485" lon="11.2646717"><ele>56.00000000000001</ele><time>2026-04-14T16:10:50.927Z</time></trkpt><trkpt lat="43.7714767" lon="11.2648067"><ele>56.0</ele><time>2026-04-14T16:10:53.926Z</time></trkpt><trkpt lat="43.7714733" lon="11.2649083"><ele>55.857142857142854</ele><time>2026-04-14T16:10:55.926Z</time></trkpt><trkpt lat="43.77146" lon="11.2650017"><ele>55.714285714285715</ele><time>2026-04-14T16:10:57.927Z</time></trkpt><trkpt lat="43.7714467" lon="11.2650883"><ele>55.57142857142857</ele><time>2026-04-14T16:10:59.926Z</time></trkpt><trkpt lat="43.771445" lon="11.2652117"><ele>55.42857142857143</ele><time>2026-04-14T16:11:02.927Z</time></trkpt><trkpt lat="43.7714617" lon="11.26531"><ele>55.285714285714285</ele><time>2026-04-14T16:11:05.926Z</time></trkpt><trkpt lat="43.77147" lon="11.265415"><ele>55.14285714285714</ele><time>2026-04-14T16:11:09.926Z</time></trkpt><trkpt lat="43.7714833" lon="11.2655033"><ele>55.0</ele><time>2026-04-14T16:11:17.927Z</time></trkpt><trkpt lat="43.7714767" lon="11.265595"><ele>55.28571428571428</ele><time>2026-04-14T16:11:21.926Z</time></trkpt><trkpt lat="43.7714683" lon="11.2656883"><ele>55.57142857142857</ele><time>2026-04-14T16:11:24.927Z</time></trkpt><trkpt lat="43.7714683" lon="11.2657917"><ele>55.857142857142854</ele><time>2026-04-14T16:11:27.926Z</time></trkpt><trkpt lat="43.7714767" lon="11.2658867"><ele>56.14285714285714</ele><time>2026-04-14T16:11:30.927Z</time></trkpt><trkpt lat="43.771475" lon="11.26598"><ele>56.42857142857142</ele><time>2026-04-14T16:11:33.926Z</time></trkpt><trkpt lat="43.771465" lon="11.2660867"><ele>56.71428571428571</ele><time>2026-04-14T16:11:36.926Z</time></trkpt><trkpt lat="43.77144" lon="11.2661783"><ele>57.0</ele><time>2026-04-14T16:11:39.926Z</time></trkpt><trkpt lat="43.7714583" lon="11.2662817"><ele>57.0</ele><time>2026-04-14T16:11:43.927Z</time></trkpt><trkpt lat="43.7714617" lon="11.2664"><ele>57.0</ele><time>2026-04-14T16:11:46.926Z</time></trkpt><trkpt lat="43.7714417" lon="11.2664833"><ele>57.0</ele><time>2026-04-14T16:11:48.926Z</time></trkpt><trkpt lat="43.7714317" lon="11.2666133"><ele>57.0</ele><time>2026-04-14T16:11:51.926Z</time></trkpt><trkpt lat="43.7714433" lon="11.2667417"><ele>57.0</ele><time>2026-04-14T16:11:54.926Z</time></trkpt><trkpt lat="43.77146" lon="11.2668633"><ele>57.0</ele><time>2026-04-14T16:11:57.926Z</time></trkpt><trkpt lat="43.7714817" lon="11.26697"><ele>56.857142857142854</ele><time>2026-04-14T16:12:00.926Z</time></trkpt><trkpt lat="43.77149" lon="11.2670567"><ele>56.71428571428571</ele><time>2026-04-14T16:12:02.926Z</time></trkpt><trkpt lat="43.77149" lon="11.26715"><ele>56.57142857142857</ele><time>2026-04-14T16:12:04.926Z</time></trkpt><trkpt lat="43.77149" lon="11.2672433"><ele>56.42857142857143</ele><time>2026-04-14T16:12:06.927Z</time></trkpt><trkpt lat="43.7714767" lon="11.2673533"><ele>56.285714285714285</ele><time>2026-04-14T16:12:09.927Z</time></trkpt><trkpt lat="43.77146" lon="11.2674483"><ele>56.14285714285714</ele><time>2026-04-14T16:12:12.926Z</time></trkpt><trkpt lat="43.7714467" lon="11.2675383"><ele>56.0</ele><time>2026-04-14T16:12:15.926Z</time></trkpt><trkpt lat="43.7714317" lon="11.26765"><ele>55.857142857142854</ele><time>2026-04-14T16:12:19.927Z</time></trkpt><trkpt lat="43.7714017" lon="11.26774"><ele>55.714285714285715</ele><time>2026-04-14T16:12:22.926Z</time></trkpt><trkpt lat="43.77136" lon="11.26781"><ele>55.57142857142857</ele><time>2026-04-14T16:12:29.926Z</time></trkpt><trkpt lat="43.77128" lon="11.267775"><ele>55.42857142857143</ele><time>2026-04-14T16:12:32.926Z</time></trkpt><trkpt lat="43.7712033" lon="11.2677417"><ele>55.285714285714285</ele><time>2026-04-14T16:12:35.926Z</time></trkpt><trkpt lat="43.7711267" lon="11.26771"><ele>55.14285714285714</ele><time>2026-04-14T16:12:38.927Z</time></trkpt><trkpt lat="43.7710633" lon="11.2676867"><ele>55.0</ele><time>2026-04-14T16:12:41.925Z</time></trkpt><trkpt lat="43.77099" lon="11.2676567"><ele>53.99999999999999</ele><time>2026-04-14T16:12:44.925Z</time></trkpt><trkpt lat="43.770915" lon="11.2676267"><ele>53.0</ele><time>2026-04-14T16:12:47.926Z</time></trkpt><trkpt lat="43.77085" lon="11.2676083"><ele>52.0</ele><time>2026-04-14T16:12:50.925Z</time></trkpt><trkpt lat="43.770795" lon="11.2676867"><ele>51.0</ele><time>2026-04-14T16:12:54.925Z</time></trkpt><trkpt lat="43.7707333" lon="11.26776"><ele>49.99999999999999</ele><time>2026-04-14T16:12:57.925Z</time></trkpt><trkpt lat="43.7706667" lon="11.2678433"><ele>49.0</ele><time>2026-04-14T16:13:00.925Z</time></trkpt><trkpt lat="43.7706083" lon="11.2679417"><ele>48.99999999999999</ele><time>2026-04-14T16:13:03.926Z</time></trkpt><trkpt lat="43.7705533" lon="11.268025"><ele>49.0</ele><time>2026-04-14T16:13:06.926Z</time></trkpt><trkpt lat="43.770505" lon="11.2681233"><ele>49.0</ele><time>2026-04-14T16:13:09.925Z</time></trkpt><trkpt lat="43.7704617" lon="11.2682283"><ele>49.0</ele><time>2026-04-14T16:13:12.926Z</time></trkpt><trkpt lat="43.770425" lon="11.2683367"><ele>48.99999999999999</ele><time>2026-04-14T16:13:15.926Z</time></trkpt><trkpt lat="43.7703783" lon="11.26844"><ele>49.0</ele><time>2026-04-14T16:13:18.925Z</time></trkpt><trkpt lat="43.7703183" lon="11.2685033"><ele>49.166666666666664</ele><time>2026-04-14T16:13:21.926Z</time></trkpt><trkpt lat="43.7702533" lon="11.2685117"><ele>49.33333333333333</ele><time>2026-04-14T16:13:24.925Z</time></trkpt><trkpt lat="43.77016" lon="11.26852"><ele>49.5</ele><time>2026-04-14T16:13:27.925Z</time></trkpt><trkpt lat="43.770065" lon="11.2684833"><ele>49.66666666666667</ele><time>2026-04-14T16:13:30.925Z</time></trkpt><trkpt lat="43.7700033" lon="11.268465"><ele>49.833333333333336</ele><time>2026-04-14T16:13:32.925Z</time></trkpt><trkpt lat="43.7699283" lon="11.2684517"><ele>50.0</ele><time>2026-04-14T16:13:35.925Z</time></trkpt><trkpt lat="43.7698533" lon="11.26844"><ele>50.00000000000001</ele><time>2026-04-14T16:13:38.925Z</time></trkpt><trkpt lat="43.7697717" lon="11.2684217"><ele>50.0</ele><time>2026-04-14T16:13:41.925Z</time></trkpt><trkpt lat="43.769685" lon="11.2684"><ele>50.0</ele><time>2026-04-14T16:13:44.925Z</time></trkpt><trkpt lat="43.7696" lon="11.268365"><ele>50.0</ele><time>2026-04-14T16:13:46.925Z</time></trkpt><trkpt lat="43.76954" lon="11.268315"><ele>50.00000000000001</ele><time>2026-04-14T16:13:50.925Z</time></trkpt><trkpt lat="43.7694767" lon="11.268355"><ele>50.0</ele><time>2026-04-14T16:13:59.925Z</time></trkpt><trkpt lat="43.7693983" lon="11.2683917"><ele>50.50000000000001</ele><time>2026-04-14T16:14:04.925Z</time></trkpt><trkpt lat="43.76932" lon="11.26839"><ele>51.0</ele><time>2026-04-14T16:14:07.925Z</time></trkpt><trkpt lat="43.7692483" lon="11.2683367"><ele>51.5</ele><time>2026-04-14T16:14:10.925Z</time></trkpt><trkpt lat="43.76917" lon="11.2682617"><ele>52.0</ele><time>2026-04-14T16:14:13.926Z</time></trkpt><trkpt lat="43.7691033" lon="11.26822"><ele>52.50000000000001</ele><time>2026-04-14T16:14:15.925Z</time></trkpt><trkpt lat="43.76903" lon="11.2681933"><ele>53.0</ele><time>2026-04-14T16:14:18.925Z</time></trkpt><trkpt lat="43.7689617" lon="11.2681767"><ele>53.00000000000001</ele><time>2026-04-14T16:14:21.925Z</time></trkpt><trkpt lat="43.7689217" lon="11.268265"><ele>53.0</ele><time>2026-04-14T16:14:39.925Z</time></trkpt><trkpt lat="43.7689083" lon="11.268365"><ele>53.0</ele><time>2026-04-14T16:14:43.925Z</time></trkpt><trkpt lat="43.7689" lon="11.2684567"><ele>53.0</ele><time>2026-04-14T16:14:46.926Z</time></trkpt><trkpt lat="43.76888" lon="11.2685483"><ele>53.00000000000001</ele><time>2026-04-14T16:14:49.926Z</time></trkpt><trkpt lat="43.7688567" lon="11.268655"><ele>53.0</ele><time>2026-04-14T16:14:52.926Z</time></trkpt><trkpt lat="43.768835" lon="11.2687683"><ele>53.00000000000001</ele><time>2026-04-14T16:14:55.925Z</time></trkpt><trkpt lat="43.7688017" lon="11.2688717"><ele>53.0</ele><time>2026-04-14T16:14:58.925Z</time></trkpt><trkpt lat="43.7687767" lon="11.2689933"><ele>53.0</ele><time>2026-04-14T16:15:01.925Z</time></trkpt><trkpt lat="43.7687417" lon="11.2691067"><ele>53.0</ele><time>2026-04-14T16:15:04.925Z</time></trkpt><trkpt lat="43.76871" lon="11.2692167"><ele>53.00000000000001</ele><time>2026-04-14T16:15:07.925Z</time></trkpt><trkpt lat="43.768695" lon="11.26931"><ele>53.0</ele><time>2026-04-14T16:15:10.925Z</time></trkpt><trkpt lat="43.768675" lon="11.269395"><ele>53.16666666666667</ele><time>2026-04-14T16:15:13.926Z</time></trkpt><trkpt lat="43.7686417" lon="11.26947"><ele>53.333333333333336</ele><time>2026-04-14T16:15:19.925Z</time></trkpt><trkpt lat="43.7685767" lon="11.269505"><ele>53.5</ele><time>2026-04-14T16:15:23.925Z</time></trkpt><trkpt lat="43.768495" lon="11.26951"><ele>53.66666666666667</ele><time>2026-04-14T16:15:26.926Z</time></trkpt><trkpt lat="43.7683983" lon="11.2695033"><ele>53.833333333333336</ele><time>2026-04-14T16:15:29.926Z</time></trkpt><trkpt lat="43.7682967" lon="11.269465"><ele>54.0</ele><time>2026-04-14T16:15:32.925Z</time></trkpt><trkpt lat="43.7682317" lon="11.2694117"><ele>54.166666666666664</ele><time>2026-04-14T16:15:35.925Z</time></trkpt><trkpt lat="43.7681717" lon="11.269385"><ele>54.33333333333333</ele><time>2026-04-14T16:15:37.925Z</time></trkpt><trkpt lat="43.7680983" lon="11.269315"><ele>54.5</ele><time>2026-04-14T16:15:39.926Z</time></trkpt><trkpt lat="43.76801" lon="11.269255"><ele>54.666666666666664</ele><time>2026-04-14T16:15:42.925Z</time></trkpt><trkpt lat="43.76793" lon="11.2692067"><ele>54.83333333333333</ele><time>2026-04-14T16:15:45.925Z</time></trkpt><trkpt lat="43.7678667" lon="11.269175"><ele>55.0</ele><time>2026-04-14T16:15:47.925Z</time></trkpt><trkpt lat="43.767785" lon="11.2691317"><ele>54.99999999999999</ele><time>2026-04-14T16:15:49.926Z</time></trkpt><trkpt lat="43.7677067" lon="11.26906"><ele>55.0</ele><time>2026-04-14T16:15:52.925Z</time></trkpt><trkpt lat="43.7676317" lon="11.268995"><ele>55.0</ele><time>2026-04-14T16:15:55.925Z</time></trkpt><trkpt lat="43.7675733" lon="11.268945"><ele>55.0</ele><time>2026-04-14T16:15:57.925Z</time></trkpt><trkpt lat="43.76751" lon="11.2688933"><ele>54.99999999999999</ele><time>2026-04-14T16:15:59.926Z</time></trkpt><trkpt lat="43.76744" lon="11.2688383"><ele>55.0</ele><time>2026-04-14T16:16:01.925Z</time></trkpt><trkpt lat="43.767375" lon="11.2687917"><ele>54.83333333333333</ele><time>2026-04-14T16:16:03.925Z</time></trkpt><trkpt lat="43.767305" lon="11.2687483"><ele>54.666666666666664</ele><time>2026-04-14T16:16:05.925Z</time></trkpt><trkpt lat="43.7672267" lon="11.2687"><ele>54.5</ele><time>2026-04-14T16:16:08.925Z</time></trkpt><trkpt lat="43.7671433" lon="11.2686483"><ele>54.33333333333333</ele><time>2026-04-14T16:16:11.925Z</time></trkpt><trkpt lat="43.7670833" lon="11.2686117"><ele>54.166666666666664</ele><time>2026-04-14T16:16:13.926Z</time></trkpt><trkpt lat="43.767" lon="11.26856"><ele>54.0</ele><time>2026-04-14T16:16:16.925Z</time></trkpt><trkpt lat="43.76694" lon="11.2685233"><ele>53.333333333333336</ele><time>2026-04-14T16:16:18.925Z</time></trkpt><trkpt lat="43.766855" lon="11.26847"><ele>52.66666666666667</ele><time>2026-04-14T16:16:21.926Z</time></trkpt><trkpt lat="43.7667783" lon="11.2684283"><ele>52.0</ele><time>2026-04-14T16:16:25.926Z</time></trkpt><trkpt lat="43.7667067" lon="11.2684167"><ele>51.333333333333336</ele><time>2026-04-14T16:16:29.925Z</time></trkpt><trkpt lat="43.7666283" lon="11.2683917"><ele>50.66666666666667</ele><time>2026-04-14T16:16:32.925Z</time></trkpt><trkpt lat="43.7665467" lon="11.2683667"><ele>50.0</ele><time>2026-04-14T16:16:35.925Z</time></trkpt><trkpt lat="43.7664433" lon="11.2683233"><ele>50.0</ele><time>2026-04-14T16:16:38.925Z</time></trkpt><trkpt lat="43.766345" lon="11.2682833"><ele>50.0</ele><time>2026-04-14T16:16:41.925Z</time></trkpt><trkpt lat="43.7663533" lon="11.2681333"><ele>50.0</ele><time>2026-04-14T16:16:45.925Z</time></trkpt><trkpt lat="43.766285" lon="11.2680317"><ele>50.0</ele><time>2026-04-14T16:16:47.925Z</time></trkpt><trkpt lat="43.766235" lon="11.2679617"><ele>50.0</ele><time>2026-04-14T16:17:03.926Z</time></trkpt><trkpt lat="43.7661483" lon="11.2679483"><ele>50.00000000000001</ele><time>2026-04-14T16:17:08.925Z</time></trkpt><trkpt lat="43.76608" lon="11.2679267"><ele>50.0</ele><time>2026-04-14T16:17:12.925Z</time></trkpt><trkpt lat="43.7660517" lon="11.2680167"><ele>50.0</ele><time>2026-04-14T16:17:16.925Z</time></trkpt><trkpt lat="43.7660367" lon="11.2681267"><ele>50.0</ele><time>2026-04-14T16:17:20.925Z</time></trkpt><trkpt lat="43.76603" lon="11.2682267"><ele>50.0</ele><time>2026-04-14T16:17:23.926Z</time></trkpt><trkpt lat="43.7660183" lon="11.2683233"><ele>50.00000000000001</ele><time>2026-04-14T16:17:26.925Z</time></trkpt><trkpt lat="43.7660117" lon="11.2684167"><ele>50.0</ele><time>2026-04-14T16:17:29.925Z</time></trkpt><trkpt lat="43.7660017" lon="11.2685033"><ele>49.66666666666667</ele><time>2026-04-14T16:17:34.925Z</time></trkpt><trkpt lat="43.765995" lon="11.2685917"><ele>49.333333333333336</ele><time>2026-04-14T16:17:38.924Z</time></trkpt><trkpt lat="43.7659817" lon="11.2687017"><ele>49.0</ele><time>2026-04-14T16:17:42.924Z</time></trkpt><trkpt lat="43.76597" lon="11.26879"><ele>48.66666666666667</ele><time>2026-04-14T16:17:45.925Z</time></trkpt><trkpt lat="43.76597" lon="11.2688983"><ele>48.333333333333336</ele><time>2026-04-14T16:17:48.924Z</time></trkpt><trkpt lat="43.7659583" lon="11.2690117"><ele>48.0</ele><time>2026-04-14T16:17:51.925Z</time></trkpt><trkpt lat="43.7659517" lon="11.2691317"><ele>48.0</ele><time>2026-04-14T16:17:54.925Z</time></trkpt><trkpt lat="43.7659433" lon="11.269245"><ele>48.0</ele><time>2026-04-14T16:17:57.925Z</time></trkpt><trkpt lat="43.765935" lon="11.2693533"><ele>48.0</ele><time>2026-04-14T16:18:00.925Z</time></trkpt><trkpt lat="43.76592" lon="11.26948"><ele>48.0</ele><time>2026-04-14T16:18:03.924Z</time></trkpt><trkpt lat="43.7659133" lon="11.26959"><ele>48.0</ele><time>2026-04-14T16:18:06.924Z</time></trkpt><trkpt lat="43.76591" lon="11.269705"><ele>48.0</ele><time>2026-04-14T16:18:09.924Z</time></trkpt><trkpt lat="43.7658933" lon="11.2698333"><ele>48.833333333333336</ele><time>2026-04-14T16:18:12.924Z</time></trkpt><trkpt lat="43.7658783" lon="11.26995"><ele>49.66666666666667</ele><time>2026-04-14T16:18:15.924Z</time></trkpt><trkpt lat="43.765865" lon="11.270065"><ele>50.5</ele><time>2026-04-14T16:18:18.924Z</time></trkpt><trkpt lat="43.765855" lon="11.27018"><ele>51.333333333333336</ele><time>2026-04-14T16:18:21.925Z</time></trkpt><trkpt lat="43.765845" lon="11.2702667"><ele>52.16666666666667</ele><time>2026-04-14T16:18:24.924Z</time></trkpt><trkpt lat="43.7658833" lon="11.2703583"><ele>53.0</ele><time>2026-04-14T16:18:28.924Z</time></trkpt><trkpt lat="43.765895" lon="11.2704883"><ele>53.00000000000001</ele><time>2026-04-14T16:18:31.924Z</time></trkpt><trkpt lat="43.7659017" lon="11.2706083"><ele>53.0</ele><time>2026-04-14T16:18:34.924Z</time></trkpt><trkpt lat="43.7659133" lon="11.2707183"><ele>53.0</ele><time>2026-04-14T16:18:37.924Z</time></trkpt><trkpt lat="43.7659317" lon="11.2708217"><ele>53.0</ele><time>2026-04-14T16:18:40.924Z</time></trkpt><trkpt lat="43.765925" lon="11.2709433"><ele>53.00000000000001</ele><time>2026-04-14T16:18:43.924Z</time></trkpt><trkpt lat="43.7659183" lon="11.27104"><ele>53.0</ele><time>2026-04-14T16:18:45.925Z</time></trkpt><trkpt lat="43.765905" lon="11.27115"><ele>53.00000000000001</ele><time>2026-04-14T16:18:48.924Z</time></trkpt><trkpt lat="43.765885" lon="11.2712333"><ele>53.0</ele><time>2026-04-14T16:18:51.925Z</time></trkpt><trkpt lat="43.765855" lon="11.2713183"><ele>53.0</ele><time>2026-04-14T16:18:54.924Z</time></trkpt><trkpt lat="43.765805" lon="11.2713983"><ele>53.0</ele><time>2026-04-14T16:18:57.925Z</time></trkpt><trkpt lat="43.7657533" lon="11.271485"><ele>53.00000000000001</ele><time>2026-04-14T16:19:00.924Z</time></trkpt><trkpt lat="43.7657517" lon="11.271595"><ele>53.0</ele><time>2026-04-14T16:19:03.924Z</time></trkpt><trkpt lat="43.7657667" lon="11.2717083"><ele>53.50000000000001</ele><time>2026-04-14T16:19:06.924Z</time></trkpt><trkpt lat="43.76576" lon="11.2718267"><ele>54.0</ele><time>2026-04-14T16:19:09.925Z</time></trkpt><trkpt lat="43.7657483" lon="11.2719483"><ele>54.5</ele><time>2026-04-14T16:19:12.924Z</time></trkpt><trkpt lat="43.7657517" lon="11.2720733"><ele>55.0</ele><time>2026-04-14T16:19:15.924Z</time></trkpt><trkpt lat="43.76575" lon="11.272175"><ele>55.50000000000001</ele><time>2026-04-14T16:19:17.925Z</time></trkpt><trkpt lat="43.7657467" lon="11.2722717"><ele>56.0</ele><time>2026-04-14T16:19:19.924Z</time></trkpt><trkpt lat="43.765745" lon="11.2724183"><ele>56.333333333333336</ele><time>2026-04-14T16:19:22.924Z</time></trkpt><trkpt lat="43.7657417" lon="11.2725283"><ele>56.66666666666667</ele><time>2026-04-14T16:19:24.924Z</time></trkpt><trkpt lat="43.7657317" lon="11.2726367"><ele>57.0</ele><time>2026-04-14T16:19:26.925Z</time></trkpt><trkpt lat="43.7657317" lon="11.2727433"><ele>57.33333333333333</ele><time>2026-04-14T16:19:28.924Z</time></trkpt><trkpt lat="43.765725" lon="11.2728517"><ele>57.666666666666664</ele><time>2026-04-14T16:19:30.924Z</time></trkpt><trkpt lat="43.765715" lon="11.2729617"><ele>58.0</ele><time>2026-04-14T16:19:32.924Z</time></trkpt><trkpt lat="43.765705" lon="11.27307"><ele>58.166666666666664</ele><time>2026-04-14T16:19:34.924Z</time></trkpt><trkpt lat="43.7657" lon="11.273185"><ele>58.33333333333333</ele><time>2026-04-14T16:19:36.924Z</time></trkpt><trkpt lat="43.7656967" lon="11.273295"><ele>58.5</ele><time>2026-04-14T16:19:38.925Z</time></trkpt><trkpt lat="43.7656917" lon="11.2734"><ele>58.66666666666667</ele><time>2026-04-14T16:19:40.924Z</time></trkpt><trkpt lat="43.7656817" lon="11.2735017"><ele>58.833333333333336</ele><time>2026-04-14T16:19:42.925Z</time></trkpt><trkpt lat="43.76567" lon="11.2736083"><ele>59.0</ele><time>2026-04-14T16:19:44.924Z</time></trkpt><trkpt lat="43.7656583" lon="11.2737167"><ele>59.00000000000001</ele><time>2026-04-14T16:19:46.924Z</time></trkpt><trkpt lat="43.7656483" lon="11.273815"><ele>59.0</ele><time>2026-04-14T16:19:48.925Z</time></trkpt><trkpt lat="43.76564" lon="11.2739083"><ele>59.0</ele><time>2026-04-14T16:19:50.925Z</time></trkpt><trkpt lat="43.7656383" lon="11.274025"><ele>59.0</ele><time>2026-04-14T16:19:53.925Z</time></trkpt><trkpt lat="43.7656283" lon="11.2741233"><ele>59.00000000000001</ele><time>2026-04-14T16:19:55.924Z</time></trkpt><trkpt lat="43.7656217" lon="11.2742333"><ele>59.0</ele><time>2026-04-14T16:19:58.924Z</time></trkpt><trkpt lat="43.7656267" lon="11.2743383"><ele>58.833333333333336</ele><time>2026-04-14T16:20:01.925Z</time></trkpt><trkpt lat="43.76557" lon="11.2744183"><ele>58.66666666666667</ele><time>2026-04-14T16:20:05.924Z</time></trkpt><trkpt lat="43.765485" lon="11.2744317"><ele>58.5</ele><time>2026-04-14T16:20:08.924Z</time></trkpt><trkpt lat="43.7653967" lon="11.27442"><ele>58.33333333333333</ele><time>2026-04-14T16:20:11.925Z</time></trkpt><trkpt lat="43.7653133" lon="11.27442"><ele>58.166666666666664</ele><time>2026-04-14T16:20:14.924Z</time></trkpt><trkpt lat="43.7652483" lon="11.2744417"><ele>58.0</ele><time>2026-04-14T16:20:17.925Z</time></trkpt><trkpt lat="43.7651983" lon="11.274525"><ele>57.14285714285715</ele><time>2026-04-14T16:20:20.924Z</time></trkpt><trkpt lat="43.765175" lon="11.2746267"><ele>56.28571428571429</ele><time>2026-04-14T16:20:23.925Z</time></trkpt><trkpt lat="43.7651617" lon="11.2747383"><ele>55.42857142857143</ele><time>2026-04-14T16:20:26.924Z</time></trkpt><trkpt lat="43.7651583" lon="11.2748317"><ele>54.57142857142858</ele><time>2026-04-14T16:20:28.925Z</time></trkpt><trkpt lat="43.7651567" lon="11.2749217"><ele>53.71428571428572</ele><time>2026-04-14T16:20:30.924Z</time></trkpt><trkpt lat="43.765155" lon="11.27501"><ele>52.857142857142854</ele><time>2026-04-14T16:20:32.924Z</time></trkpt><trkpt lat="43.7651517" lon="11.2751067"><ele>52.0</ele><time>2026-04-14T16:20:34.924Z</time></trkpt><trkpt lat="43.7651483" lon="11.2752"><ele>51.99999999999999</ele><time>2026-04-14T16:20:36.924Z</time></trkpt><trkpt lat="43.76514" lon="11.2753267"><ele>52.0</ele><time>2026-04-14T16:20:39.925Z</time></trkpt><trkpt lat="43.7651417" lon="11.2754383"><ele>52.0</ele><time>2026-04-14T16:20:42.924Z</time></trkpt><trkpt lat="43.7651733" lon="11.27553"><ele>52.0</ele><time>2026-04-14T16:20:45.924Z</time></trkpt><trkpt lat="43.765235" lon="11.2755983"><ele>51.99999999999999</ele><time>2026-04-14T16:20:48.925Z</time></trkpt><trkpt lat="43.7653167" lon="11.2756533"><ele>52.0</ele><time>2026-04-14T16:20:51.925Z</time></trkpt><trkpt lat="43.765405" lon="11.2756733"><ele>51.99999999999999</ele><time>2026-04-14T16:20:54.924Z</time></trkpt><trkpt lat="43.7654683" lon="11.2757267"><ele>52.0</ele><time>2026-04-14T16:20:57.924Z</time></trkpt><trkpt lat="43.76551" lon="11.27581"><ele>52.0</ele><time>2026-04-14T16:21:00.924Z</time></trkpt><trkpt lat="43.76553" lon="11.27593"><ele>52.0</ele><time>2026-04-14T16:21:03.924Z</time></trkpt><trkpt lat="43.765575" lon="11.2760183"><ele>51.99999999999999</ele><time>2026-04-14T16:21:06.924Z</time></trkpt><trkpt lat="43.7656467" lon="11.2760217"><ele>52.0</ele><time>2026-04-14T16:21:10.925Z</time></trkpt><trkpt lat="43.7657117" lon="11.276045"><ele>51.99999999999999</ele><time>2026-04-14T16:21:13.924Z</time></trkpt><trkpt lat="43.7657817" lon="11.2760933"><ele>52.0</ele><time>2026-04-14T16:21:16.924Z</time></trkpt><trkpt lat="43.765835" lon="11.27614"><ele>52.0</ele><time>2026-04-14T16:21:19.924Z</time></trkpt><trkpt lat="43.76584" lon="11.27627"><ele>52.0</ele><time>2026-04-14T16:21:46.923Z</time></trkpt><trkpt lat="43.765825" lon="11.276365"><ele>51.99999999999999</ele><time>2026-04-14T16:21:51.923Z</time></trkpt><trkpt lat="43.7658683" lon="11.27644"><ele>52.0</ele><time>2026-04-14T16:21:55.924Z</time></trkpt><trkpt lat="43.7659383" lon="11.2765117"><ele>52.666666666666664</ele><time>2026-04-14T16:21:59.923Z</time></trkpt><trkpt lat="43.765995" lon="11.27658"><ele>53.33333333333333</ele><time>2026-04-14T16:22:02.924Z</time></trkpt><trkpt lat="43.7660633" lon="11.276665"><ele>54.0</ele><time>2026-04-14T16:22:05.924Z</time></trkpt><trkpt lat="43.7661367" lon="11.2767433"><ele>54.66666666666667</ele><time>2026-04-14T16:22:08.923Z</time></trkpt><trkpt lat="43.7662033" lon="11.27682"><ele>55.333333333333336</ele><time>2026-04-14T16:22:11.923Z</time></trkpt><trkpt lat="43.766255" lon="11.27689"><ele>56.0</ele><time>2026-04-14T16:22:14.923Z</time></trkpt><trkpt lat="43.7663033" lon="11.276955"><ele>56.00000000000001</ele><time>2026-04-14T16:22:16.924Z</time></trkpt><trkpt lat="43.7663583" lon="11.2770217"><ele>56.0</ele><time>2026-04-14T16:22:18.924Z</time></trkpt><trkpt lat="43.76641" lon="11.277085"><ele>56.0</ele><time>2026-04-14T16:22:20.923Z</time></trkpt><trkpt lat="43.766475" lon="11.27718"><ele>56.0</ele><time>2026-04-14T16:22:23.924Z</time></trkpt><trkpt lat="43.766515" lon="11.2772483"><ele>56.00000000000001</ele><time>2026-04-14T16:22:25.923Z</time></trkpt><trkpt lat="43.7665583" lon="11.27736"><ele>56.0</ele><time>2026-04-14T16:22:28.923Z</time></trkpt><trkpt lat="43.7665933" lon="11.2774567"><ele>56.0</ele><time>2026-04-14T16:22:31.923Z</time></trkpt><trkpt lat="43.7665783" lon="11.27757"><ele>56.0</ele><time>2026-04-14T16:22:34.923Z</time></trkpt><trkpt lat="43.7665817" lon="11.2776583"><ele>56.0</ele><time>2026-04-14T16:22:36.923Z</time></trkpt><trkpt lat="43.766605" lon="11.2777433"><ele>56.0</ele><time>2026-04-14T16:22:38.923Z</time></trkpt><trkpt lat="43.766615" lon="11.2778633"><ele>56.0</ele><time>2026-04-14T16:22:41.923Z</time></trkpt><trkpt lat="43.76662" lon="11.2779633"><ele>56.0</ele><time>2026-04-14T16:22:44.924Z</time></trkpt><trkpt lat="43.7666417" lon="11.2780617"><ele>56.0</ele><time>2026-04-14T16:22:47.923Z</time></trkpt><trkpt lat="43.7666717" lon="11.2781433"><ele>55.833333333333336</ele><time>2026-04-14T16:22:51.924Z</time></trkpt><trkpt lat="43.7666867" lon="11.278235"><ele>55.66666666666667</ele><time>2026-04-14T16:22:55.923Z</time></trkpt><trkpt lat="43.7667" lon="11.2783483"><ele>55.5</ele><time>2026-04-14T16:22:58.924Z</time></trkpt><trkpt lat="43.7667433" lon="11.2784633"><ele>55.33333333333333</ele><time>2026-04-14T16:23:01.923Z</time></trkpt><trkpt lat="43.76674" lon="11.27858"><ele>55.166666666666664</ele><time>2026-04-14T16:23:04.923Z</time></trkpt><trkpt lat="43.7667333" lon="11.2786667"><ele>55.0</ele><time>2026-04-14T16:23:06.923Z</time></trkpt><trkpt lat="43.7667333" lon="11.27876"><ele>54.99999999999999</ele><time>2026-04-14T16:23:08.923Z</time></trkpt><trkpt lat="43.7667417" lon="11.27889"><ele>55.0</ele><time>2026-04-14T16:23:11.923Z</time></trkpt><trkpt lat="43.7667667" lon="11.2790017"><ele>55.0</ele><time>2026-04-14T16:23:14.923Z</time></trkpt><trkpt lat="43.76678" lon="11.2790883"><ele>55.0</ele><time>2026-04-14T16:23:16.923Z</time></trkpt><trkpt lat="43.7667783" lon="11.279215"><ele>54.99999999999999</ele><time>2026-04-14T16:23:19.923Z</time></trkpt><trkpt lat="43.76678" lon="11.2793067"><ele>55.0</ele><time>2026-04-14T16:23:21.923Z</time></trkpt><trkpt lat="43.7667883" lon="11.2794067"><ele>54.99999999999999</ele><time>2026-04-14T16:23:23.923Z</time></trkpt><trkpt lat="43.766795" lon="11.279495"><ele>55.0</ele><time>2026-04-14T16:23:25.923Z</time></trkpt><trkpt lat="43.7668067" lon="11.27962"><ele>55.0</ele><time>2026-04-14T16:23:28.923Z</time></trkpt><trkpt lat="43.766825" lon="11.2797433"><ele>55.0</ele><time>2026-04-14T16:23:31.923Z</time></trkpt><trkpt lat="43.76684" lon="11.2798317"><ele>54.99999999999999</ele><time>2026-04-14T16:23:33.923Z</time></trkpt><trkpt lat="43.7668517" lon="11.279945"><ele>55.0</ele><time>2026-04-14T16:23:36.923Z</time></trkpt><trkpt lat="43.7668617" lon="11.2800517"><ele>54.99999999999999</ele><time>2026-04-14T16:23:39.923Z</time></trkpt><trkpt lat="43.76684" lon="11.28015"><ele>55.0</ele><time>2026-04-14T16:23:43.923Z</time></trkpt><trkpt lat="43.7667683" lon="11.280175"><ele>55.0</ele><time>2026-04-14T16:23:46.924Z</time></trkpt><trkpt lat="43.766705" lon="11.28019"><ele>55.0</ele><time>2026-04-14T16:23:48.923Z</time></trkpt><trkpt lat="43.7666367" lon="11.2801867"><ele>55.0</ele><time>2026-04-14T16:23:50.923Z</time></trkpt><trkpt lat="43.766555" lon="11.2801883"><ele>54.99999999999999</ele><time>2026-04-14T16:23:53.923Z</time></trkpt><trkpt lat="43.76649" lon="11.2801983"><ele>55.0</ele><time>2026-04-14T16:23:55.924Z</time></trkpt><trkpt lat="43.7664167" lon="11.2802183"><ele>55.0</ele><time>2026-04-14T16:23:58.923Z</time></trkpt><trkpt lat="43.7664883" lon="11.2802417"><ele>55.0</ele><time>2026-04-14T16:24:10.923Z</time></trkpt><trkpt lat="43.766575" lon="11.2802783"><ele>55.0</ele><time>2026-04-14T16:24:26.923Z</time></trkpt></trkseg><trkseg><trkpt lat="43.7542867" lon="11.3046383"><ele>58.2</ele><time>2026-04-14T17:07:23.453Z</time></trkpt><trkpt lat="43.7544167" lon="11.3047033"><ele>58.4</ele><time>2026-04-14T17:07:31.953Z</time></trkpt><trkpt lat="43.7545083" lon="11.3047033"><ele>58.60000000000001</ele><time>2026-04-14T17:07:42.925Z</time></trkpt><trkpt lat="43.7546" lon="11.30473"><ele>58.800000000000004</ele><time>2026-04-14T17:07:55.925Z</time></trkpt><trkpt lat="43.7546117" lon="11.30464"><ele>59.0</ele><time>2026-04-14T17:08:07.924Z</time></trkpt><trkpt lat="43.7546267" lon="11.3045333"><ele>59.00000000000001</ele><time>2026-04-14T17:08:11.924Z</time></trkpt><trkpt lat="43.7546433" lon="11.3044233"><ele>59.0</ele><time>2026-04-14T17:08:15.924Z</time></trkpt><trkpt lat="43.7546583" lon="11.3043133"><ele>59.0</ele><time>2026-04-14T17:08:19.924Z</time></trkpt><trkpt lat="43.754675" lon="11.3042"><ele>59.0</ele><time>2026-04-14T17:08:22.924Z</time></trkpt><trkpt lat="43.7546917" lon="11.3040783"><ele>59.00000000000001</ele><time>2026-04-14T17:08:25.924Z</time></trkpt><trkpt lat="43.7547067" lon="11.3039733"><ele>59.0</ele><time>2026-04-14T17:08:28.924Z</time></trkpt><trkpt lat="43.75472" lon="11.30388"><ele>59.00000000000001</ele><time>2026-04-14T17:08:30.924Z</time></trkpt><trkpt lat="43.75473" lon="11.30379"><ele>59.0</ele><time>2026-04-14T17:08:32.924Z</time></trkpt><trkpt lat="43.7547417" lon="11.303675"><ele>59.0</ele><time>2026-04-14T17:08:35.924Z</time></trkpt><trkpt lat="43.754755" lon="11.3035383"><ele>59.0</ele><time>2026-04-14T17:08:38.925Z</time></trkpt><trkpt lat="43.754765" lon="11.3034433"><ele>59.00000000000001</ele><time>2026-04-14T17:08:40.925Z</time></trkpt><trkpt lat="43.7547767" lon="11.3033383"><ele>59.0</ele><time>2026-04-14T17:08:42.924Z</time></trkpt><trkpt lat="43.7547917" lon="11.3032283"><ele>59.0</ele><time>2026-04-14T17:08:44.924Z</time></trkpt><trkpt lat="43.7548017" lon="11.3031167"><ele>59.0</ele><time>2026-04-14T17:08:46.924Z</time></trkpt><trkpt lat="43.75482" lon="11.303015"><ele>59.0</ele><time>2026-04-14T17:08:48.924Z</time></trkpt><trkpt lat="43.75483" lon="11.302925"><ele>59.0</ele><time>2026-04-14T17:08:50.924Z</time></trkpt><trkpt lat="43.75484" lon="11.3028317"><ele>59.0</ele><time>2026-04-14T17:08:52.924Z</time></trkpt><trkpt lat="43.7548533" lon="11.302715"><ele>59.0</ele><time>2026-04-14T17:08:59.924Z</time></trkpt><trkpt lat="43.754865" lon="11.3026217"><ele>59.0</ele><time>2026-04-14T17:09:03.924Z</time></trkpt><trkpt lat="43.75485" lon="11.3025367"><ele>59.00000000000001</ele><time>2026-04-14T17:09:08.925Z</time></trkpt><trkpt lat="43.7548517" lon="11.302435"><ele>59.0</ele><time>2026-04-14T17:09:11.924Z</time></trkpt><trkpt lat="43.7548617" lon="11.3023217"><ele>59.0</ele><time>2026-04-14T17:09:14.924Z</time></trkpt><trkpt lat="43.754875" lon="11.30223"><ele>59.0</ele><time>2026-04-14T17:09:17.924Z</time></trkpt><trkpt lat="43.7548967" lon="11.30214"><ele>59.00000000000001</ele><time>2026-04-14T17:09:21.925Z</time></trkpt><trkpt lat="43.7549" lon="11.3020217"><ele>59.0</ele><time>2026-04-14T17:09:55.924Z</time></trkpt><trkpt lat="43.754915" lon="11.3018983"><ele>59.00000000000001</ele><time>2026-04-14T17:09:59.925Z</time></trkpt><trkpt lat="43.7549317" lon="11.30177"><ele>59.0</ele><time>2026-04-14T17:10:02.924Z</time></trkpt><trkpt lat="43.7549433" lon="11.3016817"><ele>59.0</ele><time>2026-04-14T17:10:04.924Z</time></trkpt><trkpt lat="43.7549617" lon="11.3015933"><ele>59.0</ele><time>2026-04-14T17:10:06.924Z</time></trkpt><trkpt lat="43.7549717" lon="11.3014767"><ele>59.00000000000001</ele><time>2026-04-14T17:10:09.924Z</time></trkpt><trkpt lat="43.75493" lon="11.3013867"><ele>59.0</ele><time>2026-04-14T17:10:12.924Z</time></trkpt><trkpt lat="43.7549667" lon="11.3012283"><ele>58.833333333333336</ele><time>2026-04-14T17:10:15.924Z</time></trkpt><trkpt lat="43.7549933" lon="11.3011417"><ele>58.66666666666667</ele><time>2026-04-14T17:10:16.924Z</time></trkpt><trkpt lat="43.75502" lon="11.30101"><ele>58.5</ele><time>2026-04-14T17:10:18.924Z</time></trkpt><trkpt lat="43.7550467" lon="11.300875"><ele>58.33333333333333</ele><time>2026-04-14T17:10:20.925Z</time></trkpt><trkpt lat="43.7550733" lon="11.3007733"><ele>58.166666666666664</ele><time>2026-04-14T17:10:22.924Z</time></trkpt><trkpt lat="43.7550917" lon="11.300665"><ele>58.0</ele><time>2026-04-14T17:10:24.924Z</time></trkpt><trkpt lat="43.7551083" lon="11.3005667"><ele>58.28571428571429</ele><time>2026-04-14T17:10:26.925Z</time></trkpt><trkpt lat="43.7551217" lon="11.3004733"><ele>58.57142857142857</ele><time>2026-04-14T17:10:28.924Z</time></trkpt><trkpt lat="43.7551333" lon="11.30036"><ele>58.85714285714286</ele><time>2026-04-14T17:10:30.924Z</time></trkpt><trkpt lat="43.7551433" lon="11.30026"><ele>59.142857142857146</ele><time>2026-04-14T17:10:33.925Z</time></trkpt><trkpt lat="43.755155" lon="11.300145"><ele>59.42857142857143</ele><time>2026-04-14T17:10:35.924Z</time></trkpt><trkpt lat="43.7551633" lon="11.3000467"><ele>59.714285714285715</ele><time>2026-04-14T17:10:38.925Z</time></trkpt><trkpt lat="43.7551717" lon="11.299955"><ele>60.0</ele><time>2026-04-14T17:10:40.924Z</time></trkpt><trkpt lat="43.75518" lon="11.2998617"><ele>60.0</ele><time>2026-04-14T17:10:42.924Z</time></trkpt><trkpt lat="43.7551883" lon="11.29977"><ele>60.0</ele><time>2026-04-14T17:10:44.924Z</time></trkpt><trkpt lat="43.7551867" lon="11.2996767"><ele>60.0</ele><time>2026-04-14T17:10:46.925Z</time></trkpt><trkpt lat="43.755195" lon="11.29959"><ele>60.0</ele><time>2026-04-14T17:10:48.924Z</time></trkpt><trkpt lat="43.755205" lon="11.2994967"><ele>60.0</ele><time>2026-04-14T17:10:50.924Z</time></trkpt><trkpt lat="43.7552217" lon="11.2993867"><ele>60.0</ele><time>2026-04-14T17:10:53.924Z</time></trkpt><trkpt lat="43.75524" lon="11.299265"><ele>60.0</ele><time>2026-04-14T17:10:55.924Z</time></trkpt><trkpt lat="43.755255" lon="11.299175"><ele>59.833333333333336</ele><time>2026-04-14T17:10:57.924Z</time></trkpt><trkpt lat="43.75527" lon="11.2990717"><ele>59.66666666666667</ele><time>2026-04-14T17:11:00.925Z</time></trkpt><trkpt lat="43.75529" lon="11.298975"><ele>59.5</ele><time>2026-04-14T17:11:05.924Z</time></trkpt><trkpt lat="43.75531" lon="11.2988817"><ele>59.333333333333336</ele><time>2026-04-14T17:11:11.924Z</time></trkpt><trkpt lat="43.7553917" lon="11.2988467"><ele>59.16666666666667</ele><time>2026-04-14T17:11:15.925Z</time></trkpt><trkpt lat="43.7554633" lon="11.29881"><ele>59.0</ele><time>2026-04-14T17:11:18.924Z</time></trkpt><trkpt lat="43.755555" lon="11.2988167"><ele>59.00000000000001</ele><time>2026-04-14T17:11:21.925Z</time></trkpt><trkpt lat="43.7556217" lon="11.2988283"><ele>59.0</ele><time>2026-04-14T17:11:23.924Z</time></trkpt><trkpt lat="43.7557283" lon="11.298845"><ele>59.0</ele><time>2026-04-14T17:11:26.924Z</time></trkpt><trkpt lat="43.7557967" lon="11.2988833"><ele>59.0</ele><time>2026-04-14T17:11:28.924Z</time></trkpt><trkpt lat="43.7558617" lon="11.298915"><ele>59.00000000000001</ele><time>2026-04-14T17:11:30.924Z</time></trkpt><trkpt lat="43.755945" lon="11.298975"><ele>59.0</ele><time>2026-04-14T17:11:32.924Z</time></trkpt><trkpt lat="43.75603" lon="11.2990217"><ele>58.50000000000001</ele><time>2026-04-14T17:11:34.924Z</time></trkpt><trkpt lat="43.7561183" lon="11.29907"><ele>58.0</ele><time>2026-04-14T17:11:36.925Z</time></trkpt><trkpt lat="43.7561833" lon="11.29911"><ele>57.5</ele><time>2026-04-14T17:11:38.925Z</time></trkpt><trkpt lat="43.7562583" lon="11.2991383"><ele>57.0</ele><time>2026-04-14T17:11:40.925Z</time></trkpt><trkpt lat="43.7563317" lon="11.299175"><ele>56.50000000000001</ele><time>2026-04-14T17:11:42.925Z</time></trkpt><trkpt lat="43.7564067" lon="11.2992133"><ele>56.0</ele><time>2026-04-14T17:11:44.924Z</time></trkpt><trkpt lat="43.7565167" lon="11.2992717"><ele>56.0</ele><time>2026-04-14T17:11:47.924Z</time></trkpt><trkpt lat="43.7565883" lon="11.29931"><ele>56.0</ele><time>2026-04-14T17:11:49.925Z</time></trkpt><trkpt lat="43.7566583" lon="11.2993467"><ele>56.0</ele><time>2026-04-14T17:11:51.924Z</time></trkpt><trkpt lat="43.7567333" lon="11.29937"><ele>56.0</ele><time>2026-04-14T17:11:54.924Z</time></trkpt><trkpt lat="43.7567883" lon="11.2993167"><ele>56.0</ele><time>2026-04-14T17:11:57.924Z</time></trkpt><trkpt lat="43.7568333" lon="11.2992317"><ele>56.0</ele><time>2026-04-14T17:11:59.924Z</time></trkpt><trkpt lat="43.7568433" lon="11.2991267"><ele>56.0</ele><time>2026-04-14T17:12:01.924Z</time></trkpt><trkpt lat="43.7568667" lon="11.299025"><ele>56.16666666666667</ele><time>2026-04-14T17:12:03.925Z</time></trkpt><trkpt lat="43.7568933" lon="11.2989433"><ele>56.333333333333336</ele><time>2026-04-14T17:12:06.924Z</time></trkpt><trkpt lat="43.7568733" lon="11.2990417"><ele>56.5</ele><time>2026-04-14T17:12:10.924Z</time></trkpt><trkpt lat="43.756895" lon="11.29894"><ele>56.66666666666667</ele><time>2026-04-14T17:12:11.924Z</time></trkpt><trkpt lat="43.756875" lon="11.2990333"><ele>56.833333333333336</ele><time>2026-04-14T17:12:12.924Z</time></trkpt><trkpt lat="43.7569017" lon="11.2989033"><ele>57.0</ele><time>2026-04-14T17:12:13.925Z</time></trkpt><trkpt lat="43.757095" lon="11.299045"><ele>57.0</ele><time>2026-04-14T17:12:15.928Z</time></trkpt><trkpt lat="43.7571667" lon="11.2990833"><ele>57.0</ele><time>2026-04-14T17:12:16.929Z</time></trkpt><trkpt lat="43.7572283" lon="11.2991233"><ele>57.0</ele><time>2026-04-14T17:12:17.928Z</time></trkpt><trkpt lat="43.757325" lon="11.2991717"><ele>57.0</ele><time>2026-04-14T17:12:19.929Z</time></trkpt><trkpt lat="43.7574117" lon="11.29921"><ele>57.0</ele><time>2026-04-14T17:12:21.928Z</time></trkpt><trkpt lat="43.7574917" lon="11.2992433"><ele>57.0</ele><time>2026-04-14T17:12:23.928Z</time></trkpt><trkpt lat="43.7575633" lon="11.2992817"><ele>57.0</ele><time>2026-04-14T17:12:25.928Z</time></trkpt><trkpt lat="43.757645" lon="11.2993283"><ele>57.0</ele><time>2026-04-14T17:12:27.928Z</time></trkpt><trkpt lat="43.7577333" lon="11.2993683"><ele>57.0</ele><time>2026-04-14T17:12:29.928Z</time></trkpt><trkpt lat="43.75782" lon="11.2993983"><ele>57.0</ele><time>2026-04-14T17:12:31.928Z</time></trkpt><trkpt lat="43.7579017" lon="11.2994067"><ele>57.0</ele><time>2026-04-14T17:12:33.929Z</time></trkpt><trkpt lat="43.7579933" lon="11.2993967"><ele>57.0</ele><time>2026-04-14T17:12:35.928Z</time></trkpt><trkpt lat="43.7580617" lon="11.299385"><ele>57.166666666666664</ele><time>2026-04-14T17:12:37.928Z</time></trkpt><trkpt lat="43.7581633" lon="11.29937"><ele>57.33333333333333</ele><time>2026-04-14T17:12:40.928Z</time></trkpt><trkpt lat="43.758245" lon="11.2993317"><ele>57.5</ele><time>2026-04-14T17:12:42.928Z</time></trkpt><trkpt lat="43.7583217" lon="11.2992917"><ele>57.666666666666664</ele><time>2026-04-14T17:12:44.929Z</time></trkpt><trkpt lat="43.758395" lon="11.2992817"><ele>57.83333333333333</ele><time>2026-04-14T17:12:46.928Z</time></trkpt><trkpt lat="43.7584733" lon="11.299285"><ele>58.0</ele><time>2026-04-14T17:12:48.929Z</time></trkpt><trkpt lat="43.7585467" lon="11.2993017"><ele>57.666666666666664</ele><time>2026-04-14T17:12:50.928Z</time></trkpt><trkpt lat="43.758625" lon="11.2993283"><ele>57.33333333333333</ele><time>2026-04-14T17:12:52.929Z</time></trkpt><trkpt lat="43.75869" lon="11.2993533"><ele>57.0</ele><time>2026-04-14T17:12:54.928Z</time></trkpt><trkpt lat="43.75876" lon="11.2993783"><ele>56.66666666666667</ele><time>2026-04-14T17:12:56.928Z</time></trkpt><trkpt lat="43.7588517" lon="11.2994133"><ele>56.333333333333336</ele><time>2026-04-14T17:12:58.929Z</time></trkpt><trkpt lat="43.75895" lon="11.299465"><ele>56.0</ele><time>2026-04-14T17:13:00.929Z</time></trkpt><trkpt lat="43.75905" lon="11.2995183"><ele>56.0</ele><time>2026-04-14T17:13:02.928Z</time></trkpt><trkpt lat="43.7591517" lon="11.2995767"><ele>55.99999999999999</ele><time>2026-04-14T17:13:04.928Z</time></trkpt><trkpt lat="43.7592483" lon="11.2996333"><ele>55.99999999999999</ele><time>2026-04-14T17:13:06.928Z</time></trkpt><trkpt lat="43.759325" lon="11.2996817"><ele>56.0</ele><time>2026-04-14T17:13:08.929Z</time></trkpt><trkpt lat="43.7594267" lon="11.2997233"><ele>56.0</ele><time>2026-04-14T17:13:10.928Z</time></trkpt><trkpt lat="43.7595133" lon="11.2997483"><ele>56.0</ele><time>2026-04-14T17:13:12.928Z</time></trkpt><trkpt lat="43.7596117" lon="11.29978"><ele>55.99999999999999</ele><time>2026-04-14T17:13:14.928Z</time></trkpt><trkpt lat="43.75972" lon="11.2998167"><ele>55.99999999999999</ele><time>2026-04-14T17:13:16.928Z</time></trkpt><trkpt lat="43.7598133" lon="11.2998467"><ele>56.0</ele><time>2026-04-14T17:13:18.929Z</time></trkpt><trkpt lat="43.7598933" lon="11.299875"><ele>56.0</ele><time>2026-04-14T17:13:20.928Z</time></trkpt><trkpt lat="43.75999" lon="11.2999083"><ele>56.00000000000001</ele><time>2026-04-14T17:13:22.929Z</time></trkpt><trkpt lat="43.760065" lon="11.2999083"><ele>56.0</ele><time>2026-04-14T17:13:24.928Z</time></trkpt><trkpt lat="43.7601317" lon="11.2998533"><ele>56.0</ele><time>2026-04-14T17:13:26.929Z</time></trkpt><trkpt lat="43.760205" lon="11.2998083"><ele>56.0</ele><time>2026-04-14T17:13:28.928Z</time></trkpt><trkpt lat="43.7602867" lon="11.2997817"><ele>56.00000000000001</ele><time>2026-04-14T17:13:30.928Z</time></trkpt><trkpt lat="43.7603617" lon="11.2997667"><ele>56.0</ele><time>2026-04-14T17:13:32.928Z</time></trkpt><trkpt lat="43.7604333" lon="11.2997367"><ele>56.00000000000001</ele><time>2026-04-14T17:13:34.928Z</time></trkpt><trkpt lat="43.7604983" lon="11.2997183"><ele>56.0</ele><time>2026-04-14T17:13:36.928Z</time></trkpt><trkpt lat="43.7605783" lon="11.2996983"><ele>56.0</ele><time>2026-04-14T17:13:38.929Z</time></trkpt><trkpt lat="43.76066" lon="11.2996917"><ele>56.0</ele><time>2026-04-14T17:13:40.928Z</time></trkpt><trkpt lat="43.7607483" lon="11.2996767"><ele>56.00000000000001</ele><time>2026-04-14T17:13:42.928Z</time></trkpt><trkpt lat="43.7607817" lon="11.29976"><ele>56.0</ele><time>2026-04-14T17:13:43.929Z</time></trkpt><trkpt lat="43.7608567" lon="11.29979"><ele>56.00000000000001</ele><time>2026-04-14T17:13:45.928Z</time></trkpt><trkpt lat="43.76094" lon="11.2997767"><ele>56.0</ele><time>2026-04-14T17:13:47.928Z</time></trkpt><trkpt lat="43.761015" lon="11.2997617"><ele>56.0</ele><time>2026-04-14T17:13:49.928Z</time></trkpt><trkpt lat="43.761115" lon="11.2997367"><ele>56.0</ele><time>2026-04-14T17:13:51.929Z</time></trkpt><trkpt lat="43.7611933" lon="11.2997"><ele>56.00000000000001</ele><time>2026-04-14T17:13:53.928Z</time></trkpt><trkpt lat="43.761285" lon="11.2996817"><ele>56.0</ele><time>2026-04-14T17:13:55.928Z</time></trkpt><trkpt lat="43.7613783" lon="11.29968"><ele>55.833333333333336</ele><time>2026-04-14T17:13:57.928Z</time></trkpt><trkpt lat="43.7614533" lon="11.2996617"><ele>55.66666666666667</ele><time>2026-04-14T17:13:59.928Z</time></trkpt><trkpt lat="43.7615467" lon="11.2996283"><ele>55.5</ele><time>2026-04-14T17:14:01.928Z</time></trkpt><trkpt lat="43.761615" lon="11.2996133"><ele>55.33333333333333</ele><time>2026-04-14T17:14:02.928Z</time></trkpt><trkpt lat="43.7617017" lon="11.2995767"><ele>55.166666666666664</ele><time>2026-04-14T17:14:04.928Z</time></trkpt><trkpt lat="43.7617817" lon="11.2995283"><ele>55.0</ele><time>2026-04-14T17:14:06.929Z</time></trkpt><trkpt lat="43.76186" lon="11.2994967"><ele>54.666666666666664</ele><time>2026-04-14T17:14:08.929Z</time></trkpt><trkpt lat="43.7619433" lon="11.2994867"><ele>54.33333333333333</ele><time>2026-04-14T17:14:10.928Z</time></trkpt><trkpt lat="43.76203" lon="11.2994717"><ele>54.0</ele><time>2026-04-14T17:14:12.928Z</time></trkpt><trkpt lat="43.7621233" lon="11.299445"><ele>53.66666666666667</ele><time>2026-04-14T17:14:14.929Z</time></trkpt><trkpt lat="43.7622033" lon="11.2993983"><ele>53.333333333333336</ele><time>2026-04-14T17:14:16.928Z</time></trkpt><trkpt lat="43.76227" lon="11.2993783"><ele>53.0</ele><time>2026-04-14T17:14:19.928Z</time></trkpt><trkpt lat="43.7623417" lon="11.2993517"><ele>53.00000000000001</ele><time>2026-04-14T17:14:23.928Z</time></trkpt><trkpt lat="43.7624267" lon="11.2993217"><ele>53.0</ele><time>2026-04-14T17:14:26.928Z</time></trkpt><trkpt lat="43.7624583" lon="11.2992017"><ele>53.0</ele><time>2026-04-14T17:14:29.928Z</time></trkpt><trkpt lat="43.762475" lon="11.2991067"><ele>53.0</ele><time>2026-04-14T17:14:31.929Z</time></trkpt><trkpt lat="43.7624933" lon="11.299005"><ele>53.00000000000001</ele><time>2026-04-14T17:14:33.928Z</time></trkpt><trkpt lat="43.76251" lon="11.2989"><ele>53.0</ele><time>2026-04-14T17:14:35.928Z</time></trkpt><trkpt lat="43.7625267" lon="11.298805"><ele>52.8</ele><time>2026-04-14T17:14:37.928Z</time></trkpt><trkpt lat="43.7625417" lon="11.2987"><ele>52.599999999999994</ele><time>2026-04-14T17:14:39.928Z</time></trkpt><trkpt lat="43.7625567" lon="11.2985467"><ele>52.400000000000006</ele><time>2026-04-14T17:14:41.929Z</time></trkpt><trkpt lat="43.7625733" lon="11.2984167"><ele>52.2</ele><time>2026-04-14T17:14:43.928Z</time></trkpt><trkpt lat="43.7625833" lon="11.2983"><ele>52.0</ele><time>2026-04-14T17:14:45.928Z</time></trkpt><trkpt lat="43.76258" lon="11.2981583"><ele>52.400000000000006</ele><time>2026-04-14T17:14:47.929Z</time></trkpt><trkpt lat="43.7625733" lon="11.29802"><ele>52.800000000000004</ele><time>2026-04-14T17:14:49.928Z</time></trkpt><trkpt lat="43.7625767" lon="11.2979033"><ele>53.2</ele><time>2026-04-14T17:14:51.928Z</time></trkpt><trkpt lat="43.7625833" lon="11.29779"><ele>53.6</ele><time>2026-04-14T17:14:53.928Z</time></trkpt><trkpt lat="43.762595" lon="11.29767"><ele>54.0</ele><time>2026-04-14T17:14:55.929Z</time></trkpt><trkpt lat="43.7625983" lon="11.2975333"><ele>54.0</ele><time>2026-04-14T17:14:57.928Z</time></trkpt><trkpt lat="43.7626133" lon="11.2974017"><ele>54.00000000000001</ele><time>2026-04-14T17:14:59.928Z</time></trkpt><trkpt lat="43.762625" lon="11.2972683"><ele>54.00000000000001</ele><time>2026-04-14T17:15:01.928Z</time></trkpt><trkpt lat="43.76263" lon="11.2971233"><ele>54.0</ele><time>2026-04-14T17:15:03.929Z</time></trkpt><trkpt lat="43.7626367" lon="11.2969683"><ele>54.0</ele><time>2026-04-14T17:15:05.928Z</time></trkpt><trkpt lat="43.7626517" lon="11.2968567"><ele>54.0</ele><time>2026-04-14T17:15:07.928Z</time></trkpt><trkpt lat="43.7626633" lon="11.2967633"><ele>54.0</ele><time>2026-04-14T17:15:09.928Z</time></trkpt><trkpt lat="43.7626617" lon="11.2966367"><ele>54.0</ele><time>2026-04-14T17:15:11.928Z</time></trkpt><trkpt lat="43.7626683" lon="11.2965283"><ele>54.0</ele><time>2026-04-14T17:15:14.929Z</time></trkpt><trkpt lat="43.7626733" lon="11.2964333"><ele>54.0</ele><time>2026-04-14T17:15:19.928Z</time></trkpt><trkpt lat="43.76268" lon="11.2963283"><ele>54.0</ele><time>2026-04-14T17:15:22.929Z</time></trkpt><trkpt lat="43.7626917" lon="11.29618"><ele>53.833333333333336</ele><time>2026-04-14T17:15:26.928Z</time></trkpt><trkpt lat="43.7627" lon="11.2960733"><ele>53.66666666666667</ele><time>2026-04-14T17:15:29.93Z</time></trkpt><trkpt lat="43.7627083" lon="11.295965"><ele>53.5</ele><time>2026-04-14T17:15:31.929Z</time></trkpt><trkpt lat="43.7627167" lon="11.2958483"><ele>53.333333333333336</ele><time>2026-04-14T17:15:34.929Z</time></trkpt><trkpt lat="43.7627233" lon="11.2957533"><ele>53.16666666666667</ele><time>2026-04-14T17:15:36.929Z</time></trkpt><trkpt lat="43.76273" lon="11.2956617"><ele>53.0</ele><time>2026-04-14T17:15:38.929Z</time></trkpt><trkpt lat="43.7627733" lon="11.2955583"><ele>52.66666666666667</ele><time>2026-04-14T17:15:40.929Z</time></trkpt><trkpt lat="43.762795" lon="11.2954517"><ele>52.333333333333336</ele><time>2026-04-14T17:15:42.93Z</time></trkpt><trkpt lat="43.76281" lon="11.2953317"><ele>52.0</ele><time>2026-04-14T17:15:44.929Z</time></trkpt><trkpt lat="43.762825" lon="11.2952117"><ele>51.66666666666667</ele><time>2026-04-14T17:15:46.929Z</time></trkpt><trkpt lat="43.7628417" lon="11.2950733"><ele>51.333333333333336</ele><time>2026-04-14T17:15:48.929Z</time></trkpt><trkpt lat="43.762855" lon="11.2949483"><ele>51.0</ele><time>2026-04-14T17:15:50.929Z</time></trkpt><trkpt lat="43.76287" lon="11.294835"><ele>51.0</ele><time>2026-04-14T17:15:52.93Z</time></trkpt><trkpt lat="43.7628833" lon="11.2946983"><ele>51.0</ele><time>2026-04-14T17:15:54.93Z</time></trkpt><trkpt lat="43.762895" lon="11.29456"><ele>51.0</ele><time>2026-04-14T17:15:56.929Z</time></trkpt><trkpt lat="43.7629" lon="11.2944183"><ele>51.0</ele><time>2026-04-14T17:15:58.929Z</time></trkpt><trkpt lat="43.76291" lon="11.2942867"><ele>51.0</ele><time>2026-04-14T17:16:00.929Z</time></trkpt><trkpt lat="43.7629217" lon="11.2941717"><ele>51.0</ele><time>2026-04-14T17:16:02.929Z</time></trkpt><trkpt lat="43.7629417" lon="11.2940833"><ele>51.0</ele><time>2026-04-14T17:16:04.929Z</time></trkpt><trkpt lat="43.762945" lon="11.293975"><ele>51.0</ele><time>2026-04-14T17:16:06.93Z</time></trkpt><trkpt lat="43.7629533" lon="11.293865"><ele>51.0</ele><time>2026-04-14T17:16:08.929Z</time></trkpt><trkpt lat="43.7629617" lon="11.2937517"><ele>51.0</ele><time>2026-04-14T17:16:10.929Z</time></trkpt><trkpt lat="43.7629667" lon="11.2936233"><ele>51.0</ele><time>2026-04-14T17:16:12.929Z</time></trkpt><trkpt lat="43.76297" lon="11.293505"><ele>51.199999999999996</ele><time>2026-04-14T17:16:14.929Z</time></trkpt><trkpt lat="43.7629817" lon="11.2933883"><ele>51.4</ele><time>2026-04-14T17:16:16.929Z</time></trkpt><trkpt lat="43.76299" lon="11.29325"><ele>51.6</ele><time>2026-04-14T17:16:18.929Z</time></trkpt><trkpt lat="43.7629967" lon="11.2931117"><ele>51.8</ele><time>2026-04-14T17:16:20.929Z</time></trkpt><trkpt lat="43.7630033" lon="11.29297"><ele>52.0</ele><time>2026-04-14T17:16:22.929Z</time></trkpt><trkpt lat="43.7630067" lon="11.29284"><ele>51.99999999999999</ele><time>2026-04-14T17:16:24.93Z</time></trkpt><trkpt lat="43.7630117" lon="11.29271"><ele>52.0</ele><time>2026-04-14T17:16:26.929Z</time></trkpt><trkpt lat="43.7630217" lon="11.2925767"><ele>52.0</ele><time>2026-04-14T17:16:28.93Z</time></trkpt><trkpt lat="43.7630283" lon="11.29245"><ele>52.0</ele><time>2026-04-14T17:16:30.929Z</time></trkpt><trkpt lat="43.7630467" lon="11.2923517"><ele>51.99999999999999</ele><time>2026-04-14T17:16:32.929Z</time></trkpt><trkpt lat="43.7630767" lon="11.29224"><ele>52.0</ele><time>2026-04-14T17:16:34.929Z</time></trkpt><trkpt lat="43.763085" lon="11.2921183"><ele>51.666666666666664</ele><time>2026-04-14T17:16:36.929Z</time></trkpt><trkpt lat="43.7630983" lon="11.2920017"><ele>51.33333333333333</ele><time>2026-04-14T17:16:38.929Z</time></trkpt><trkpt lat="43.7631067" lon="11.2918917"><ele>51.0</ele><time>2026-04-14T17:16:40.929Z</time></trkpt><trkpt lat="43.7631117" lon="11.2917783"><ele>50.66666666666667</ele><time>2026-04-14T17:16:42.929Z</time></trkpt><trkpt lat="43.7631183" lon="11.2916733"><ele>50.333333333333336</ele><time>2026-04-14T17:16:44.929Z</time></trkpt><trkpt lat="43.7631267" lon="11.2915583"><ele>50.0</ele><time>2026-04-14T17:16:46.929Z</time></trkpt><trkpt lat="43.7631333" lon="11.2914367"><ele>49.833333333333336</ele><time>2026-04-14T17:16:48.929Z</time></trkpt><trkpt lat="43.76315" lon="11.2913433"><ele>49.66666666666667</ele><time>2026-04-14T17:16:50.93Z</time></trkpt><trkpt lat="43.7631617" lon="11.2912267"><ele>49.5</ele><time>2026-04-14T17:16:52.929Z</time></trkpt><trkpt lat="43.7631617" lon="11.2910917"><ele>49.33333333333333</ele><time>2026-04-14T17:16:54.929Z</time></trkpt><trkpt lat="43.7631683" lon="11.2909683"><ele>49.166666666666664</ele><time>2026-04-14T17:16:56.929Z</time></trkpt><trkpt lat="43.7631717" lon="11.290845"><ele>49.0</ele><time>2026-04-14T17:16:58.93Z</time></trkpt><trkpt lat="43.7631867" lon="11.2907333"><ele>48.99999999999999</ele><time>2026-04-14T17:17:00.929Z</time></trkpt><trkpt lat="43.7631983" lon="11.2906317"><ele>49.0</ele><time>2026-04-14T17:17:02.929Z</time></trkpt><trkpt lat="43.763205" lon="11.2905317"><ele>49.0</ele><time>2026-04-14T17:17:04.93Z</time></trkpt><trkpt lat="43.7632117" lon="11.2904333"><ele>49.0</ele><time>2026-04-14T17:17:06.929Z</time></trkpt><trkpt lat="43.7632183" lon="11.2903233"><ele>48.99999999999999</ele><time>2026-04-14T17:17:08.929Z</time></trkpt><trkpt lat="43.7632267" lon="11.2902117"><ele>49.0</ele><time>2026-04-14T17:17:10.929Z</time></trkpt><trkpt lat="43.7632267" lon="11.2900533"><ele>49.166666666666664</ele><time>2026-04-14T17:17:12.929Z</time></trkpt><trkpt lat="43.763235" lon="11.2899233"><ele>49.33333333333333</ele><time>2026-04-14T17:17:14.929Z</time></trkpt><trkpt lat="43.7632433" lon="11.28981"><ele>49.5</ele><time>2026-04-14T17:17:16.929Z</time></trkpt><trkpt lat="43.7632483" lon="11.2897083"><ele>49.66666666666667</ele><time>2026-04-14T17:17:18.929Z</time></trkpt><trkpt lat="43.7632617" lon="11.289595"><ele>49.833333333333336</ele><time>2026-04-14T17:17:20.929Z</time></trkpt><trkpt lat="43.7632817" lon="11.2894867"><ele>50.0</ele><time>2026-04-14T17:17:22.93Z</time></trkpt><trkpt lat="43.7633" lon="11.2893783"><ele>50.2</ele><time>2026-04-14T17:17:24.929Z</time></trkpt><trkpt lat="43.7633033" lon="11.2892617"><ele>50.4</ele><time>2026-04-14T17:17:26.929Z</time></trkpt><trkpt lat="43.7633133" lon="11.28914"><ele>50.599999999999994</ele><time>2026-04-14T17:17:28.929Z</time></trkpt><trkpt lat="43.7633183" lon="11.2890017"><ele>50.8</ele><time>2026-04-14T17:17:30.929Z</time></trkpt><trkpt lat="43.7633283" lon="11.2888633"><ele>51.0</ele><time>2026-04-14T17:17:32.93Z</time></trkpt><trkpt lat="43.7633333" lon="11.2887483"><ele>51.0</ele><time>2026-04-14T17:17:34.929Z</time></trkpt><trkpt lat="43.763345" lon="11.2886233"><ele>51.0</ele><time>2026-04-14T17:17:36.929Z</time></trkpt><trkpt lat="43.76335" lon="11.288515"><ele>51.0</ele><time>2026-04-14T17:17:38.929Z</time></trkpt><trkpt lat="43.7633583" lon="11.28839"><ele>51.0</ele><time>2026-04-14T17:17:40.93Z</time></trkpt><trkpt lat="43.7633617" lon="11.2882617"><ele>51.0</ele><time>2026-04-14T17:17:42.929Z</time></trkpt><trkpt lat="43.7633633" lon="11.2881267"><ele>51.333333333333336</ele><time>2026-04-14T17:17:44.93Z</time></trkpt><trkpt lat="43.76338" lon="11.2880167"><ele>51.66666666666667</ele><time>2026-04-14T17:17:46.929Z</time></trkpt><trkpt lat="43.763375" lon="11.2878933"><ele>52.0</ele><time>2026-04-14T17:17:48.93Z</time></trkpt><trkpt lat="43.7633817" lon="11.287765"><ele>52.333333333333336</ele><time>2026-04-14T17:17:50.929Z</time></trkpt><trkpt lat="43.7633933" lon="11.28764"><ele>52.66666666666667</ele><time>2026-04-14T17:17:52.929Z</time></trkpt><trkpt lat="43.763405" lon="11.2875383"><ele>53.0</ele><time>2026-04-14T17:17:54.929Z</time></trkpt><trkpt lat="43.7634133" lon="11.2874367"><ele>53.0</ele><time>2026-04-14T17:17:56.93Z</time></trkpt><trkpt lat="43.76342" lon="11.287325"><ele>53.0</ele><time>2026-04-14T17:17:58.929Z</time></trkpt><trkpt lat="43.76341" lon="11.2872117"><ele>53.0</ele><time>2026-04-14T17:18:00.929Z</time></trkpt><trkpt lat="43.7633967" lon="11.287095"><ele>53.0</ele><time>2026-04-14T17:18:02.929Z</time></trkpt><trkpt lat="43.7634017" lon="11.2869517"><ele>53.0</ele><time>2026-04-14T17:18:04.929Z</time></trkpt><trkpt lat="43.7634117" lon="11.2868167"><ele>53.16666666666667</ele><time>2026-04-14T17:18:06.929Z</time></trkpt><trkpt lat="43.7634283" lon="11.28669"><ele>53.333333333333336</ele><time>2026-04-14T17:18:08.929Z</time></trkpt><trkpt lat="43.7634183" lon="11.2865683"><ele>53.5</ele><time>2026-04-14T17:18:10.929Z</time></trkpt><trkpt lat="43.763425" lon="11.2864567"><ele>53.66666666666667</ele><time>2026-04-14T17:18:12.929Z</time></trkpt><trkpt lat="43.7634317" lon="11.28634"><ele>53.833333333333336</ele><time>2026-04-14T17:18:14.929Z</time></trkpt><trkpt lat="43.7634433" lon="11.286235"><ele>54.0</ele><time>2026-04-14T17:18:16.929Z</time></trkpt><trkpt lat="43.7634617" lon="11.2861333"><ele>53.5</ele><time>2026-04-14T17:18:18.929Z</time></trkpt><trkpt lat="43.7634783" lon="11.2860267"><ele>53.0</ele><time>2026-04-14T17:18:20.929Z</time></trkpt><trkpt lat="43.7634833" lon="11.2859217"><ele>52.5</ele><time>2026-04-14T17:18:22.929Z</time></trkpt><trkpt lat="43.76351" lon="11.2858367"><ele>52.0</ele><time>2026-04-14T17:18:24.929Z</time></trkpt><trkpt lat="43.7635017" lon="11.2857083"><ele>51.5</ele><time>2026-04-14T17:18:26.929Z</time></trkpt><trkpt lat="43.76351" lon="11.2855967"><ele>51.0</ele><time>2026-04-14T17:18:28.929Z</time></trkpt><trkpt lat="43.7635217" lon="11.28549"><ele>51.333333333333336</ele><time>2026-04-14T17:18:30.929Z</time></trkpt><trkpt lat="43.7635383" lon="11.2853817"><ele>51.66666666666667</ele><time>2026-04-14T17:18:32.93Z</time></trkpt><trkpt lat="43.7635417" lon="11.2852633"><ele>52.0</ele><time>2026-04-14T17:18:34.929Z</time></trkpt><trkpt lat="43.7635483" lon="11.28515"><ele>52.333333333333336</ele><time>2026-04-14T17:18:36.929Z</time></trkpt><trkpt lat="43.7635567" lon="11.2850383"><ele>52.66666666666667</ele><time>2026-04-14T17:18:38.93Z</time></trkpt><trkpt lat="43.7635667" lon="11.2849167"><ele>53.0</ele><time>2026-04-14T17:18:40.93Z</time></trkpt><trkpt lat="43.7635733" lon="11.28481"><ele>53.00000000000001</ele><time>2026-04-14T17:18:42.93Z</time></trkpt><trkpt lat="43.763575" lon="11.284705"><ele>53.0</ele><time>2026-04-14T17:18:44.929Z</time></trkpt><trkpt lat="43.76358" lon="11.2845917"><ele>53.0</ele><time>2026-04-14T17:18:46.93Z</time></trkpt><trkpt lat="43.763585" lon="11.2844617"><ele>53.0</ele><time>2026-04-14T17:18:48.929Z</time></trkpt><trkpt lat="43.7635867" lon="11.284355"><ele>53.00000000000001</ele><time>2026-04-14T17:18:50.929Z</time></trkpt><trkpt lat="43.7635867" lon="11.2842383"><ele>53.0</ele><time>2026-04-14T17:18:52.93Z</time></trkpt><trkpt lat="43.7635983" lon="11.284105"><ele>53.00000000000001</ele><time>2026-04-14T17:18:54.93Z</time></trkpt><trkpt lat="43.7636067" lon="11.283985"><ele>53.0</ele><time>2026-04-14T17:18:56.93Z</time></trkpt><trkpt lat="43.76362" lon="11.283865"><ele>53.0</ele><time>2026-04-14T17:18:58.929Z</time></trkpt><trkpt lat="43.7636283" lon="11.2837517"><ele>53.0</ele><time>2026-04-14T17:19:00.929Z</time></trkpt><trkpt lat="43.7636333" lon="11.2836483"><ele>53.00000000000001</ele><time>2026-04-14T17:19:02.929Z</time></trkpt><trkpt lat="43.7636433" lon="11.283535"><ele>53.0</ele><time>2026-04-14T17:19:04.929Z</time></trkpt><trkpt lat="43.7636417" lon="11.2834433"><ele>52.66666666666667</ele><time>2026-04-14T17:19:06.93Z</time></trkpt><trkpt lat="43.763645" lon="11.283355"><ele>52.333333333333336</ele><time>2026-04-14T17:19:08.929Z</time></trkpt><trkpt lat="43.76365" lon="11.283255"><ele>52.0</ele><time>2026-04-14T17:19:10.929Z</time></trkpt><trkpt lat="43.7636567" lon="11.2831467"><ele>51.66666666666667</ele><time>2026-04-14T17:19:12.93Z</time></trkpt><trkpt lat="43.7636617" lon="11.283035"><ele>51.333333333333336</ele><time>2026-04-14T17:19:14.929Z</time></trkpt><trkpt lat="43.7636767" lon="11.2829233"><ele>51.0</ele><time>2026-04-14T17:19:16.929Z</time></trkpt><trkpt lat="43.7636867" lon="11.28281"><ele>50.666666666666664</ele><time>2026-04-14T17:19:18.929Z</time></trkpt><trkpt lat="43.763695" lon="11.28269"><ele>50.33333333333333</ele><time>2026-04-14T17:19:20.929Z</time></trkpt><trkpt lat="43.7636933" lon="11.28256"><ele>50.0</ele><time>2026-04-14T17:19:22.93Z</time></trkpt><trkpt lat="43.7636983" lon="11.2824533"><ele>49.666666666666664</ele><time>2026-04-14T17:19:24.929Z</time></trkpt><trkpt lat="43.7636967" lon="11.2823433"><ele>49.33333333333333</ele><time>2026-04-14T17:19:26.93Z</time></trkpt><trkpt lat="43.7637067" lon="11.2822567"><ele>49.0</ele><time>2026-04-14T17:19:29.929Z</time></trkpt><trkpt lat="43.7637667" lon="11.2822267"><ele>49.666666666666664</ele><time>2026-04-14T17:19:31.93Z</time></trkpt><trkpt lat="43.7638283" lon="11.2821733"><ele>50.33333333333333</ele><time>2026-04-14T17:19:34.929Z</time></trkpt><trkpt lat="43.763885" lon="11.2821033"><ele>51.0</ele><time>2026-04-14T17:19:38.929Z</time></trkpt><trkpt lat="43.7639467" lon="11.28206"><ele>51.66666666666667</ele><time>2026-04-14T17:19:41.929Z</time></trkpt><trkpt lat="43.7640117" lon="11.2819933"><ele>52.333333333333336</ele><time>2026-04-14T17:19:44.929Z</time></trkpt><trkpt lat="43.7640883" lon="11.2819433"><ele>53.0</ele><time>2026-04-14T17:19:47.93Z</time></trkpt><trkpt lat="43.7641583" lon="11.2818883"><ele>53.00000000000001</ele><time>2026-04-14T17:19:50.929Z</time></trkpt><trkpt lat="43.76421" lon="11.2818183"><ele>53.0</ele><time>2026-04-14T17:19:54.929Z</time></trkpt><trkpt lat="43.7641967" lon="11.2817267"><ele>53.0</ele><time>2026-04-14T17:19:58.929Z</time></trkpt><trkpt lat="43.7642067" lon="11.281615"><ele>53.0</ele><time>2026-04-14T17:20:03.929Z</time></trkpt><trkpt lat="43.7642117" lon="11.281505"><ele>53.00000000000001</ele><time>2026-04-14T17:20:06.929Z</time></trkpt><trkpt lat="43.7641717" lon="11.281415"><ele>53.0</ele><time>2026-04-14T17:20:09.93Z</time></trkpt><trkpt lat="43.7640967" lon="11.2813383"><ele>53.00000000000001</ele><time>2026-04-14T17:20:12.929Z</time></trkpt><trkpt lat="43.7640483" lon="11.281275"><ele>53.0</ele><time>2026-04-14T17:20:14.93Z</time></trkpt><trkpt lat="43.7640233" lon="11.2811617"><ele>53.0</ele><time>2026-04-14T17:20:17.929Z</time></trkpt><trkpt lat="43.7640233" lon="11.281035"><ele>53.0</ele><time>2026-04-14T17:20:20.929Z</time></trkpt><trkpt lat="43.7640233" lon="11.2809417"><ele>53.00000000000001</ele><time>2026-04-14T17:20:22.929Z</time></trkpt><trkpt lat="43.7640267" lon="11.2808233"><ele>53.0</ele><time>2026-04-14T17:20:25.929Z</time></trkpt><trkpt lat="43.7640267" lon="11.28073"><ele>53.0</ele><time>2026-04-14T17:20:27.929Z</time></trkpt><trkpt lat="43.76402" lon="11.28064"><ele>53.0</ele><time>2026-04-14T17:20:30.929Z</time></trkpt><trkpt lat="43.76402" lon="11.2805517"><ele>53.0</ele><time>2026-04-14T17:20:32.929Z</time></trkpt><trkpt lat="43.7640217" lon="11.2804567"><ele>53.0</ele><time>2026-04-14T17:20:35.929Z</time></trkpt><trkpt lat="43.7640233" lon="11.28035"><ele>53.0</ele><time>2026-04-14T17:20:38.93Z</time></trkpt><trkpt lat="43.764025" lon="11.2802517"><ele>53.0</ele><time>2026-04-14T17:20:40.929Z</time></trkpt><trkpt lat="43.7640267" lon="11.2801133"><ele>53.0</ele><time>2026-04-14T17:20:43.929Z</time></trkpt><trkpt lat="43.7640283" lon="11.2800067"><ele>52.50000000000001</ele><time>2026-04-14T17:20:45.929Z</time></trkpt><trkpt lat="43.7640283" lon="11.2799117"><ele>52.0</ele><time>2026-04-14T17:20:47.929Z</time></trkpt><trkpt lat="43.76403" lon="11.27982"><ele>51.5</ele><time>2026-04-14T17:20:49.929Z</time></trkpt><trkpt lat="43.7640317" lon="11.2797217"><ele>51.0</ele><time>2026-04-14T17:20:51.93Z</time></trkpt><trkpt lat="43.7640333" lon="11.2795967"><ele>50.50000000000001</ele><time>2026-04-14T17:20:53.93Z</time></trkpt><trkpt lat="43.7640333" lon="11.279475"><ele>50.0</ele><time>2026-04-14T17:20:55.929Z</time></trkpt><trkpt lat="43.7640333" lon="11.2793633"><ele>50.0</ele><time>2026-04-14T17:20:57.929Z</time></trkpt><trkpt lat="43.7640333" lon="11.27922"><ele>50.0</ele><time>2026-04-14T17:20:59.929Z</time></trkpt><trkpt lat="43.764025" lon="11.2790667"><ele>50.0</ele><time>2026-04-14T17:21:01.929Z</time></trkpt><trkpt lat="43.7640117" lon="11.2789"><ele>50.0</ele><time>2026-04-14T17:21:03.929Z</time></trkpt><trkpt lat="43.764" lon="11.2787233"><ele>50.0</ele><time>2026-04-14T17:21:05.93Z</time></trkpt><trkpt lat="43.7639967" lon="11.2786267"><ele>50.0</ele><time>2026-04-14T17:21:06.929Z</time></trkpt><trkpt lat="43.7639967" lon="11.2784567"><ele>50.0</ele><time>2026-04-14T17:21:08.929Z</time></trkpt><trkpt lat="43.764" lon="11.2782917"><ele>50.0</ele><time>2026-04-14T17:21:10.929Z</time></trkpt><trkpt lat="43.7640083" lon="11.27815"><ele>50.0</ele><time>2026-04-14T17:21:12.93Z</time></trkpt><trkpt lat="43.7640133" lon="11.2780033"><ele>49.6</ele><time>2026-04-14T17:21:14.929Z</time></trkpt><trkpt lat="43.764015" lon="11.2778567"><ele>49.2</ele><time>2026-04-14T17:21:17.929Z</time></trkpt><trkpt lat="43.764015" lon="11.2777267"><ele>48.8</ele><time>2026-04-14T17:21:19.93Z</time></trkpt><trkpt lat="43.764015" lon="11.2775933"><ele>48.4</ele><time>2026-04-14T17:21:21.929Z</time></trkpt><trkpt lat="43.764015" lon="11.2774767"><ele>48.0</ele><time>2026-04-14T17:21:23.929Z</time></trkpt><trkpt lat="43.7640133" lon="11.2773517"><ele>48.166666666666664</ele><time>2026-04-14T17:21:25.93Z</time></trkpt><trkpt lat="43.764015" lon="11.2772217"><ele>48.33333333333333</ele><time>2026-04-14T17:21:27.929Z</time></trkpt><trkpt lat="43.7640183" lon="11.2771083"><ele>48.5</ele><time>2026-04-14T17:21:29.929Z</time></trkpt><trkpt lat="43.764035" lon="11.2770133"><ele>48.666666666666664</ele><time>2026-04-14T17:21:31.929Z</time></trkpt><trkpt lat="43.76404" lon="11.276915"><ele>48.83333333333333</ele><time>2026-04-14T17:21:33.929Z</time></trkpt><trkpt lat="43.76404" lon="11.2768"><ele>49.0</ele><time>2026-04-14T17:21:35.929Z</time></trkpt><trkpt lat="43.7640417" lon="11.2766883"><ele>48.99999999999999</ele><time>2026-04-14T17:21:38.929Z</time></trkpt><trkpt lat="43.7640433" lon="11.276585"><ele>49.0</ele><time>2026-04-14T17:21:40.929Z</time></trkpt><trkpt lat="43.764045" lon="11.276465"><ele>49.0</ele><time>2026-04-14T17:21:42.93Z</time></trkpt><trkpt lat="43.7640467" lon="11.2763533"><ele>49.0</ele><time>2026-04-14T17:21:44.929Z</time></trkpt><trkpt lat="43.7640483" lon="11.27624"><ele>48.99999999999999</ele><time>2026-04-14T17:21:46.929Z</time></trkpt><trkpt lat="43.7640483" lon="11.2761517"><ele>49.0</ele><time>2026-04-14T17:21:48.93Z</time></trkpt><trkpt lat="43.76405" lon="11.2760367"><ele>48.99999999999999</ele><time>2026-04-14T17:21:50.929Z</time></trkpt><trkpt lat="43.7640517" lon="11.27592"><ele>49.0</ele><time>2026-04-14T17:21:52.929Z</time></trkpt><trkpt lat="43.7640533" lon="11.2757983"><ele>49.0</ele><time>2026-04-14T17:21:54.929Z</time></trkpt><trkpt lat="43.7640467" lon="11.2756717"><ele>49.0</ele><time>2026-04-14T17:21:56.93Z</time></trkpt><trkpt lat="43.7640483" lon="11.27555"><ele>48.99999999999999</ele><time>2026-04-14T17:21:58.929Z</time></trkpt><trkpt lat="43.76405" lon="11.2754267"><ele>49.0</ele><time>2026-04-14T17:22:00.93Z</time></trkpt><trkpt lat="43.76405" lon="11.2753017"><ele>49.2</ele><time>2026-04-14T17:22:02.929Z</time></trkpt><trkpt lat="43.7640483" lon="11.275165"><ele>49.400000000000006</ele><time>2026-04-14T17:22:04.93Z</time></trkpt><trkpt lat="43.7640433" lon="11.27501"><ele>49.6</ele><time>2026-04-14T17:22:06.929Z</time></trkpt><trkpt lat="43.764035" lon="11.2748617"><ele>49.8</ele><time>2026-04-14T17:22:08.93Z</time></trkpt><trkpt lat="43.7640317" lon="11.2746917"><ele>50.0</ele><time>2026-04-14T17:22:10.929Z</time></trkpt><trkpt lat="43.7640367" lon="11.2745267"><ele>50.4</ele><time>2026-04-14T17:22:12.93Z</time></trkpt><trkpt lat="43.7640333" lon="11.2743667"><ele>50.8</ele><time>2026-04-14T17:22:14.929Z</time></trkpt><trkpt lat="43.7640317" lon="11.2742283"><ele>51.2</ele><time>2026-04-14T17:22:16.93Z</time></trkpt><trkpt lat="43.7640317" lon="11.2741"><ele>51.6</ele><time>2026-04-14T17:22:18.929Z</time></trkpt><trkpt lat="43.7640183" lon="11.2739617"><ele>52.0</ele><time>2026-04-14T17:22:20.93Z</time></trkpt><trkpt lat="43.7640117" lon="11.2738383"><ele>52.166666666666664</ele><time>2026-04-14T17:22:22.929Z</time></trkpt><trkpt lat="43.7640133" lon="11.2737167"><ele>52.33333333333333</ele><time>2026-04-14T17:22:25.929Z</time></trkpt><trkpt lat="43.7640117" lon="11.273595"><ele>52.5</ele><time>2026-04-14T17:22:27.929Z</time></trkpt><trkpt lat="43.764005" lon="11.2734633"><ele>52.66666666666667</ele><time>2026-04-14T17:22:29.929Z</time></trkpt><trkpt lat="43.7640033" lon="11.2733533"><ele>52.833333333333336</ele><time>2026-04-14T17:22:31.929Z</time></trkpt><trkpt lat="43.7640033" lon="11.2732167"><ele>53.0</ele><time>2026-04-14T17:22:33.929Z</time></trkpt><trkpt lat="43.76401" lon="11.27308"><ele>53.0</ele><time>2026-04-14T17:22:35.929Z</time></trkpt><trkpt lat="43.764015" lon="11.272935"><ele>53.0</ele><time>2026-04-14T17:22:37.929Z</time></trkpt><trkpt lat="43.7640167" lon="11.2727783"><ele>53.0</ele><time>2026-04-14T17:22:39.929Z</time></trkpt><trkpt lat="43.76402" lon="11.2726317"><ele>53.0</ele><time>2026-04-14T17:22:41.93Z</time></trkpt><trkpt lat="43.7640283" lon="11.2724783"><ele>53.0</ele><time>2026-04-14T17:22:43.929Z</time></trkpt><trkpt lat="43.7640417" lon="11.272315"><ele>52.50000000000001</ele><time>2026-04-14T17:22:45.929Z</time></trkpt><trkpt lat="43.764045" lon="11.2721917"><ele>52.0</ele><time>2026-04-14T17:22:47.93Z</time></trkpt><trkpt lat="43.7640533" lon="11.2720683"><ele>51.5</ele><time>2026-04-14T17:22:49.93Z</time></trkpt><trkpt lat="43.7640717" lon="11.27195"><ele>51.0</ele><time>2026-04-14T17:22:51.929Z</time></trkpt><trkpt lat="43.7640783" lon="11.271835"><ele>50.50000000000001</ele><time>2026-04-14T17:22:53.929Z</time></trkpt><trkpt lat="43.76403" lon="11.2717483"><ele>50.0</ele><time>2026-04-14T17:22:56.929Z</time></trkpt><trkpt lat="43.7639617" lon="11.2717167"><ele>50.00000000000001</ele><time>2026-04-14T17:22:59.929Z</time></trkpt><trkpt lat="43.7639517" lon="11.2716133"><ele>50.0</ele><time>2026-04-14T17:23:01.929Z</time></trkpt><trkpt lat="43.7639333" lon="11.2714983"><ele>50.0</ele><time>2026-04-14T17:23:03.93Z</time></trkpt><trkpt lat="43.76395" lon="11.271385"><ele>50.0</ele><time>2026-04-14T17:23:06.929Z</time></trkpt><trkpt lat="43.76397" lon="11.27126"><ele>50.00000000000001</ele><time>2026-04-14T17:23:09.929Z</time></trkpt><trkpt lat="43.7639967" lon="11.2711533"><ele>50.0</ele><time>2026-04-14T17:23:11.929Z</time></trkpt><trkpt lat="43.76403" lon="11.2710283"><ele>50.00000000000001</ele><time>2026-04-14T17:23:15.929Z</time></trkpt><trkpt lat="43.7640583" lon="11.2709367"><ele>50.0</ele><time>2026-04-14T17:23:20.93Z</time></trkpt><trkpt lat="43.7640983" lon="11.27084"><ele>50.0</ele><time>2026-04-14T17:23:23.929Z</time></trkpt><trkpt lat="43.76414" lon="11.2707383"><ele>50.0</ele><time>2026-04-14T17:23:26.929Z</time></trkpt><trkpt lat="43.7641933" lon="11.2706433"><ele>50.00000000000001</ele><time>2026-04-14T17:23:29.93Z</time></trkpt><trkpt lat="43.7642567" lon="11.270555"><ele>50.0</ele><time>2026-04-14T17:23:33.93Z</time></trkpt><trkpt lat="43.7642933" lon="11.2704717"><ele>50.00000000000001</ele><time>2026-04-14T17:23:35.929Z</time></trkpt><trkpt lat="43.764325" lon="11.2703767"><ele>50.0</ele><time>2026-04-14T17:23:37.93Z</time></trkpt><trkpt lat="43.76434" lon="11.2702533"><ele>50.0</ele><time>2026-04-14T17:23:39.929Z</time></trkpt><trkpt lat="43.7643383" lon="11.27013"><ele>50.0</ele><time>2026-04-14T17:23:41.929Z</time></trkpt><trkpt lat="43.7643483" lon="11.2699933"><ele>50.00000000000001</ele><time>2026-04-14T17:23:43.929Z</time></trkpt><trkpt lat="43.7643633" lon="11.269875"><ele>50.0</ele><time>2026-04-14T17:23:45.93Z</time></trkpt><trkpt lat="43.7643683" lon="11.2697583"><ele>50.00000000000001</ele><time>2026-04-14T17:23:47.93Z</time></trkpt><trkpt lat="43.764375" lon="11.269645"><ele>50.0</ele><time>2026-04-14T17:23:49.93Z</time></trkpt><trkpt lat="43.7643883" lon="11.2695467"><ele>50.0</ele><time>2026-04-14T17:23:51.929Z</time></trkpt><trkpt lat="43.7644033" lon="11.2694533"><ele>50.0</ele><time>2026-04-14T17:23:53.93Z</time></trkpt><trkpt lat="43.764425" lon="11.2693533"><ele>50.0</ele><time>2026-04-14T17:23:55.929Z</time></trkpt><trkpt lat="43.7644367" lon="11.2692617"><ele>50.00000000000001</ele><time>2026-04-14T17:23:57.929Z</time></trkpt><trkpt lat="43.7644633" lon="11.26916"><ele>50.0</ele><time>2026-04-14T17:23:59.929Z</time></trkpt><trkpt lat="43.7644933" lon="11.2690383"><ele>49.8</ele><time>2026-04-14T17:24:01.929Z</time></trkpt><trkpt lat="43.7645117" lon="11.2689017"><ele>49.6</ele><time>2026-04-14T17:24:03.929Z</time></trkpt><trkpt lat="43.7645267" lon="11.2687783"><ele>49.400000000000006</ele><time>2026-04-14T17:24:05.929Z</time></trkpt><trkpt lat="43.764545" lon="11.2686467"><ele>49.2</ele><time>2026-04-14T17:24:07.929Z</time></trkpt><trkpt lat="43.764565" lon="11.2685117"><ele>49.0</ele><time>2026-04-14T17:24:09.929Z</time></trkpt><trkpt lat="43.7645833" lon="11.26838"><ele>48.99999999999999</ele><time>2026-04-14T17:24:11.929Z</time></trkpt><trkpt lat="43.7646117" lon="11.2682433"><ele>49.0</ele><time>2026-04-14T17:24:13.929Z</time></trkpt><trkpt lat="43.7646283" lon="11.268125"><ele>49.0</ele><time>2026-04-14T17:24:15.929Z</time></trkpt><trkpt lat="43.7646467" lon="11.2680133"><ele>49.0</ele><time>2026-04-14T17:24:17.929Z</time></trkpt><trkpt lat="43.7646517" lon="11.26791"><ele>48.99999999999999</ele><time>2026-04-14T17:24:19.929Z</time></trkpt><trkpt lat="43.7646567" lon="11.2677983"><ele>49.0</ele><time>2026-04-14T17:24:21.93Z</time></trkpt><trkpt lat="43.764665" lon="11.267675"><ele>49.166666666666664</ele><time>2026-04-14T17:24:23.93Z</time></trkpt><trkpt lat="43.764675" lon="11.2675567"><ele>49.33333333333333</ele><time>2026-04-14T17:24:25.929Z</time></trkpt><trkpt lat="43.7646933" lon="11.26743"><ele>49.5</ele><time>2026-04-14T17:24:27.93Z</time></trkpt><trkpt lat="43.7646967" lon="11.2672933"><ele>49.66666666666667</ele><time>2026-04-14T17:24:29.93Z</time></trkpt><trkpt lat="43.764705" lon="11.2671817"><ele>49.833333333333336</ele><time>2026-04-14T17:24:31.929Z</time></trkpt><trkpt lat="43.76472" lon="11.2670817"><ele>50.0</ele><time>2026-04-14T17:24:33.93Z</time></trkpt><trkpt lat="43.7647283" lon="11.2669817"><ele>50.00000000000001</ele><time>2026-04-14T17:24:35.93Z</time></trkpt><trkpt lat="43.76473" lon="11.2668783"><ele>50.0</ele><time>2026-04-14T17:24:37.929Z</time></trkpt><trkpt lat="43.7647367" lon="11.2667717"><ele>50.0</ele><time>2026-04-14T17:24:39.929Z</time></trkpt><trkpt lat="43.76475" lon="11.2666517"><ele>50.0</ele><time>2026-04-14T17:24:41.929Z</time></trkpt><trkpt lat="43.76476" lon="11.2665383"><ele>50.00000000000001</ele><time>2026-04-14T17:24:43.929Z</time></trkpt><trkpt lat="43.76477" lon="11.26643"><ele>50.0</ele><time>2026-04-14T17:24:45.929Z</time></trkpt><trkpt lat="43.764785" lon="11.2663133"><ele>50.00000000000001</ele><time>2026-04-14T17:24:47.929Z</time></trkpt><trkpt lat="43.7648" lon="11.2662217"><ele>50.0</ele><time>2026-04-14T17:24:49.929Z</time></trkpt><trkpt lat="43.76481" lon="11.2660967"><ele>50.0</ele><time>2026-04-14T17:24:51.929Z</time></trkpt><trkpt lat="43.7648133" lon="11.2660067"><ele>50.0</ele><time>2026-04-14T17:24:53.929Z</time></trkpt><trkpt lat="43.7648217" lon="11.2658883"><ele>50.00000000000001</ele><time>2026-04-14T17:24:55.929Z</time></trkpt><trkpt lat="43.76484" lon="11.2657517"><ele>50.0</ele><time>2026-04-14T17:24:57.93Z</time></trkpt><trkpt lat="43.7648533" lon="11.26563"><ele>50.8</ele><time>2026-04-14T17:24:59.929Z</time></trkpt><trkpt lat="43.7648667" lon="11.2655067"><ele>51.6</ele><time>2026-04-14T17:25:01.929Z</time></trkpt><trkpt lat="43.7648867" lon="11.265375"><ele>52.400000000000006</ele><time>2026-04-14T17:25:03.929Z</time></trkpt><trkpt lat="43.7649" lon="11.265255"><ele>53.2</ele><time>2026-04-14T17:25:05.929Z</time></trkpt><trkpt lat="43.7649183" lon="11.265125"><ele>54.0</ele><time>2026-04-14T17:25:07.929Z</time></trkpt><trkpt lat="43.7649183" lon="11.264985"><ele>54.0</ele><time>2026-04-14T17:25:09.929Z</time></trkpt><trkpt lat="43.7649283" lon="11.2648617"><ele>54.0</ele><time>2026-04-14T17:25:11.93Z</time></trkpt><trkpt lat="43.7649317" lon="11.26473"><ele>54.0</ele><time>2026-04-14T17:25:13.929Z</time></trkpt><trkpt lat="43.764945" lon="11.2646083"><ele>54.0</ele><time>2026-04-14T17:25:15.929Z</time></trkpt><trkpt lat="43.7649533" lon="11.264485"><ele>54.0</ele><time>2026-04-14T17:25:17.929Z</time></trkpt><trkpt lat="43.7649717" lon="11.264375"><ele>54.0</ele><time>2026-04-14T17:25:19.929Z</time></trkpt><trkpt lat="43.764985" lon="11.2642567"><ele>53.833333333333336</ele><time>2026-04-14T17:25:21.929Z</time></trkpt><trkpt lat="43.76499" lon="11.264125"><ele>53.66666666666667</ele><time>2026-04-14T17:25:23.93Z</time></trkpt><trkpt lat="43.7650033" lon="11.2639983"><ele>53.5</ele><time>2026-04-14T17:25:25.929Z</time></trkpt><trkpt lat="43.7650167" lon="11.2638833"><ele>53.333333333333336</ele><time>2026-04-14T17:25:27.929Z</time></trkpt><trkpt lat="43.7650217" lon="11.2637733"><ele>53.16666666666667</ele><time>2026-04-14T17:25:29.929Z</time></trkpt><trkpt lat="43.7650267" lon="11.2636467"><ele>53.0</ele><time>2026-04-14T17:25:31.929Z</time></trkpt><trkpt lat="43.7650417" lon="11.2635217"><ele>53.4</ele><time>2026-04-14T17:25:33.929Z</time></trkpt><trkpt lat="43.7650517" lon="11.263395"><ele>53.8</ele><time>2026-04-14T17:25:35.93Z</time></trkpt><trkpt lat="43.7650633" lon="11.263265"><ele>54.2</ele><time>2026-04-14T17:25:37.929Z</time></trkpt><trkpt lat="43.7650783" lon="11.26314"><ele>54.6</ele><time>2026-04-14T17:25:39.929Z</time></trkpt><trkpt lat="43.7651" lon="11.2630267"><ele>55.0</ele><time>2026-04-14T17:25:41.929Z</time></trkpt><trkpt lat="43.7651183" lon="11.2628967"><ele>55.0</ele><time>2026-04-14T17:25:43.93Z</time></trkpt><trkpt lat="43.765125" lon="11.2627567"><ele>55.0</ele><time>2026-04-14T17:25:45.929Z</time></trkpt><trkpt lat="43.7651467" lon="11.26262"><ele>55.0</ele><time>2026-04-14T17:25:47.929Z</time></trkpt><trkpt lat="43.7651583" lon="11.2624933"><ele>55.0</ele><time>2026-04-14T17:25:49.93Z</time></trkpt><trkpt lat="43.765165" lon="11.2623467"><ele>55.0</ele><time>2026-04-14T17:25:51.929Z</time></trkpt><trkpt lat="43.765165" lon="11.262195"><ele>56.2</ele><time>2026-04-14T17:25:53.929Z</time></trkpt><trkpt lat="43.7651733" lon="11.26207"><ele>57.4</ele><time>2026-04-14T17:25:55.929Z</time></trkpt><trkpt lat="43.7651833" lon="11.2619433"><ele>58.599999999999994</ele><time>2026-04-14T17:25:57.929Z</time></trkpt><trkpt lat="43.7652067" lon="11.2618117"><ele>59.8</ele><time>2026-04-14T17:25:59.929Z</time></trkpt><trkpt lat="43.7652183" lon="11.26169"><ele>61.0</ele><time>2026-04-14T17:26:01.929Z</time></trkpt><trkpt lat="43.765225" lon="11.261565"><ele>58.4</ele><time>2026-04-14T17:26:03.929Z</time></trkpt><trkpt lat="43.7652383" lon="11.2614433"><ele>55.8</ele><time>2026-04-14T17:26:05.929Z</time></trkpt><trkpt lat="43.7652483" lon="11.2613133"><ele>53.199999999999996</ele><time>2026-04-14T17:26:07.929Z</time></trkpt><trkpt lat="43.7652567" lon="11.2611767"><ele>50.599999999999994</ele><time>2026-04-14T17:26:09.929Z</time></trkpt><trkpt lat="43.76527" lon="11.261055"><ele>48.0</ele><time>2026-04-14T17:26:11.929Z</time></trkpt><trkpt lat="43.7652833" lon="11.2609083"><ele>48.0</ele><time>2026-04-14T17:26:13.929Z</time></trkpt><trkpt lat="43.7652933" lon="11.2607683"><ele>48.0</ele><time>2026-04-14T17:26:15.929Z</time></trkpt><trkpt lat="43.7653033" lon="11.2606383"><ele>48.0</ele><time>2026-04-14T17:26:17.929Z</time></trkpt><trkpt lat="43.76532" lon="11.2604933"><ele>48.0</ele><time>2026-04-14T17:26:19.929Z</time></trkpt><trkpt lat="43.765345" lon="11.26037"><ele>48.0</ele><time>2026-04-14T17:26:21.929Z</time></trkpt><trkpt lat="43.7653567" lon="11.260245"><ele>47.5</ele><time>2026-04-14T17:26:23.929Z</time></trkpt><trkpt lat="43.76537" lon="11.2601333"><ele>47.0</ele><time>2026-04-14T17:26:25.929Z</time></trkpt><trkpt lat="43.7653833" lon="11.2600083"><ele>46.5</ele><time>2026-04-14T17:26:27.929Z</time></trkpt><trkpt lat="43.765395" lon="11.2598833"><ele>46.0</ele><time>2026-04-14T17:26:29.929Z</time></trkpt><trkpt lat="43.7654067" lon="11.25976"><ele>45.5</ele><time>2026-04-14T17:26:31.929Z</time></trkpt><trkpt lat="43.765415" lon="11.2596417"><ele>45.0</ele><time>2026-04-14T17:26:33.929Z</time></trkpt><trkpt lat="43.7654233" lon="11.259525"><ele>44.833333333333336</ele><time>2026-04-14T17:26:35.93Z</time></trkpt><trkpt lat="43.7654283" lon="11.2594033"><ele>44.666666666666664</ele><time>2026-04-14T17:26:37.93Z</time></trkpt><trkpt lat="43.7654267" lon="11.2592767"><ele>44.5</ele><time>2026-04-14T17:26:39.929Z</time></trkpt><trkpt lat="43.7654383" lon="11.25916"><ele>44.33333333333333</ele><time>2026-04-14T17:26:41.929Z</time></trkpt><trkpt lat="43.7654467" lon="11.2590533"><ele>44.166666666666664</ele><time>2026-04-14T17:26:43.93Z</time></trkpt><trkpt lat="43.76547" lon="11.2589317"><ele>44.0</ele><time>2026-04-14T17:26:45.929Z</time></trkpt><trkpt lat="43.7654867" lon="11.25882"><ele>44.0</ele><time>2026-04-14T17:26:47.93Z</time></trkpt><trkpt lat="43.7654967" lon="11.2587117"><ele>44.0</ele><time>2026-04-14T17:26:49.93Z</time></trkpt><trkpt lat="43.7655183" lon="11.2586117"><ele>44.0</ele><time>2026-04-14T17:26:51.929Z</time></trkpt><trkpt lat="43.7656217" lon="11.258565"><ele>44.0</ele><time>2026-04-14T17:26:57.93Z</time></trkpt><trkpt lat="43.7657217" lon="11.2585917"><ele>44.0</ele><time>2026-04-14T17:26:59.929Z</time></trkpt><trkpt lat="43.7658033" lon="11.258615"><ele>44.0</ele><time>2026-04-14T17:27:01.929Z</time></trkpt><trkpt lat="43.7658833" lon="11.2586467"><ele>44.0</ele><time>2026-04-14T17:27:03.929Z</time></trkpt><trkpt lat="43.765965" lon="11.2586817"><ele>44.0</ele><time>2026-04-14T17:27:05.929Z</time></trkpt><trkpt lat="43.7660417" lon="11.2587067"><ele>44.0</ele><time>2026-04-14T17:27:07.929Z</time></trkpt><trkpt lat="43.7661183" lon="11.25874"><ele>44.0</ele><time>2026-04-14T17:27:09.929Z</time></trkpt><trkpt lat="43.7662067" lon="11.258775"><ele>44.0</ele><time>2026-04-14T17:27:11.929Z</time></trkpt><trkpt lat="43.76629" lon="11.2588117"><ele>44.0</ele><time>2026-04-14T17:27:13.929Z</time></trkpt><trkpt lat="43.7663783" lon="11.25886"><ele>44.400000000000006</ele><time>2026-04-14T17:27:15.929Z</time></trkpt><trkpt lat="43.7664617" lon="11.2588983"><ele>44.8</ele><time>2026-04-14T17:27:17.929Z</time></trkpt><trkpt lat="43.7665517" lon="11.2589433"><ele>45.2</ele><time>2026-04-14T17:27:19.93Z</time></trkpt><trkpt lat="43.76664" lon="11.2590033"><ele>45.599999999999994</ele><time>2026-04-14T17:27:21.929Z</time></trkpt><trkpt lat="43.7667267" lon="11.2590333"><ele>46.0</ele><time>2026-04-14T17:27:23.929Z</time></trkpt><trkpt lat="43.7668033" lon="11.2590567"><ele>47.833333333333336</ele><time>2026-04-14T17:27:25.929Z</time></trkpt><trkpt lat="43.7668683" lon="11.2590717"><ele>49.66666666666667</ele><time>2026-04-14T17:27:27.929Z</time></trkpt><trkpt lat="43.7669267" lon="11.259125"><ele>51.5</ele><time>2026-04-14T17:27:29.929Z</time></trkpt><trkpt lat="43.7669983" lon="11.2591917"><ele>53.333333333333336</ele><time>2026-04-14T17:27:31.929Z</time></trkpt><trkpt lat="43.7670583" lon="11.259265"><ele>55.166666666666664</ele><time>2026-04-14T17:27:33.929Z</time></trkpt><trkpt lat="43.7671283" lon="11.259315"><ele>57.0</ele><time>2026-04-14T17:27:35.93Z</time></trkpt><trkpt lat="43.76723" lon="11.259355"><ele>57.0</ele><time>2026-04-14T17:27:37.929Z</time></trkpt><trkpt lat="43.7673033" lon="11.2593767"><ele>57.0</ele><time>2026-04-14T17:27:39.93Z</time></trkpt><trkpt lat="43.7673767" lon="11.25941"><ele>57.0</ele><time>2026-04-14T17:27:41.929Z</time></trkpt><trkpt lat="43.7674533" lon="11.2594483"><ele>57.0</ele><time>2026-04-14T17:27:43.929Z</time></trkpt><trkpt lat="43.7675233" lon="11.2594817"><ele>57.0</ele><time>2026-04-14T17:27:45.929Z</time></trkpt><trkpt lat="43.7675983" lon="11.2595083"><ele>57.0</ele><time>2026-04-14T17:27:47.929Z</time></trkpt><trkpt lat="43.7676683" lon="11.2595433"><ele>57.400000000000006</ele><time>2026-04-14T17:27:49.929Z</time></trkpt><trkpt lat="43.767745" lon="11.2595817"><ele>57.800000000000004</ele><time>2026-04-14T17:27:51.929Z</time></trkpt><trkpt lat="43.7678267" lon="11.2596317"><ele>58.2</ele><time>2026-04-14T17:27:53.929Z</time></trkpt><trkpt lat="43.7678967" lon="11.25971"><ele>58.6</ele><time>2026-04-14T17:27:55.929Z</time></trkpt><trkpt lat="43.7679867" lon="11.2597817"><ele>59.0</ele><time>2026-04-14T17:27:57.93Z</time></trkpt><trkpt lat="43.7680517" lon="11.2598583"><ele>59.00000000000001</ele><time>2026-04-14T17:27:59.929Z</time></trkpt><trkpt lat="43.768125" lon="11.259915"><ele>59.0</ele><time>2026-04-14T17:28:01.929Z</time></trkpt><trkpt lat="43.7681917" lon="11.25997"><ele>59.0</ele><time>2026-04-14T17:28:03.93Z</time></trkpt><trkpt lat="43.768255" lon="11.26003"><ele>59.0</ele><time>2026-04-14T17:28:05.93Z</time></trkpt><trkpt lat="43.76831" lon="11.26008"><ele>59.00000000000001</ele><time>2026-04-14T17:28:07.929Z</time></trkpt><trkpt lat="43.768365" lon="11.2601317"><ele>59.0</ele><time>2026-04-14T17:28:09.93Z</time></trkpt><trkpt lat="43.7684417" lon="11.2602033"><ele>59.0</ele><time>2026-04-14T17:28:11.929Z</time></trkpt><trkpt lat="43.768525" lon="11.2602767"><ele>59.00000000000001</ele><time>2026-04-14T17:28:13.93Z</time></trkpt><trkpt lat="43.7686067" lon="11.2603467"><ele>59.00000000000001</ele><time>2026-04-14T17:28:15.929Z</time></trkpt><trkpt lat="43.768695" lon="11.2604233"><ele>59.0</ele><time>2026-04-14T17:28:17.929Z</time></trkpt><trkpt lat="43.7687733" lon="11.26049"><ele>59.0</ele><time>2026-04-14T17:28:19.929Z</time></trkpt><trkpt lat="43.76885" lon="11.2605567"><ele>58.2</ele><time>2026-04-14T17:28:21.929Z</time></trkpt><trkpt lat="43.7689417" lon="11.2606267"><ele>57.400000000000006</ele><time>2026-04-14T17:28:23.929Z</time></trkpt><trkpt lat="43.76905" lon="11.260655"><ele>56.6</ele><time>2026-04-14T17:28:25.929Z</time></trkpt><trkpt lat="43.7691583" lon="11.2606883"><ele>55.8</ele><time>2026-04-14T17:28:27.929Z</time></trkpt><trkpt lat="43.769245" lon="11.260735"><ele>55.0</ele><time>2026-04-14T17:28:29.929Z</time></trkpt><trkpt lat="43.7693083" lon="11.2607583"><ele>55.99999999999999</ele><time>2026-04-14T17:28:31.929Z</time></trkpt><trkpt lat="43.7693683" lon="11.2607917"><ele>57.0</ele><time>2026-04-14T17:28:34.93Z</time></trkpt><trkpt lat="43.769435" lon="11.26085"><ele>58.0</ele><time>2026-04-14T17:28:37.93Z</time></trkpt><trkpt lat="43.7694983" lon="11.260905"><ele>59.0</ele><time>2026-04-14T17:28:39.929Z</time></trkpt><trkpt lat="43.769565" lon="11.2609617"><ele>59.99999999999999</ele><time>2026-04-14T17:28:41.929Z</time></trkpt><trkpt lat="43.7696333" lon="11.26102"><ele>61.0</ele><time>2026-04-14T17:28:43.929Z</time></trkpt><trkpt lat="43.7697017" lon="11.26108"><ele>60.99999999999999</ele><time>2026-04-14T17:28:45.929Z</time></trkpt><trkpt lat="43.7697767" lon="11.2611383"><ele>61.0</ele><time>2026-04-14T17:28:47.929Z</time></trkpt><trkpt lat="43.7698333" lon="11.2611817"><ele>61.0</ele><time>2026-04-14T17:28:49.929Z</time></trkpt><trkpt lat="43.7698983" lon="11.2612317"><ele>61.0</ele><time>2026-04-14T17:28:51.93Z</time></trkpt><trkpt lat="43.7699683" lon="11.2613267"><ele>60.99999999999999</ele><time>2026-04-14T17:28:53.929Z</time></trkpt><trkpt lat="43.7700267" lon="11.26143"><ele>61.0</ele><time>2026-04-14T17:28:55.929Z</time></trkpt><trkpt lat="43.7701017" lon="11.261515"><ele>59.99999999999999</ele><time>2026-04-14T17:28:57.929Z</time></trkpt><trkpt lat="43.77016" lon="11.26157"><ele>59.0</ele><time>2026-04-14T17:28:59.929Z</time></trkpt><trkpt lat="43.770235" lon="11.2616283"><ele>58.0</ele><time>2026-04-14T17:29:02.93Z</time></trkpt><trkpt lat="43.77029" lon="11.2616767"><ele>57.0</ele><time>2026-04-14T17:29:04.929Z</time></trkpt><trkpt lat="43.770355" lon="11.2617333"><ele>55.99999999999999</ele><time>2026-04-14T17:29:06.93Z</time></trkpt><trkpt lat="43.770435" lon="11.2618017"><ele>55.0</ele><time>2026-04-14T17:29:08.929Z</time></trkpt><trkpt lat="43.7705083" lon="11.261865"><ele>54.83333333333333</ele><time>2026-04-14T17:29:10.929Z</time></trkpt><trkpt lat="43.770575" lon="11.2619233"><ele>54.666666666666664</ele><time>2026-04-14T17:29:12.929Z</time></trkpt><trkpt lat="43.770645" lon="11.2619817"><ele>54.5</ele><time>2026-04-14T17:29:14.93Z</time></trkpt><trkpt lat="43.77073" lon="11.2620567"><ele>54.33333333333333</ele><time>2026-04-14T17:29:16.929Z</time></trkpt><trkpt lat="43.7707933" lon="11.2620983"><ele>54.166666666666664</ele><time>2026-04-14T17:29:19.929Z</time></trkpt><trkpt lat="43.7708733" lon="11.262165"><ele>54.0</ele><time>2026-04-14T17:29:22.93Z</time></trkpt><trkpt lat="43.770945" lon="11.262225"><ele>54.2</ele><time>2026-04-14T17:29:24.93Z</time></trkpt><trkpt lat="43.7710133" lon="11.2622817"><ele>54.400000000000006</ele><time>2026-04-14T17:29:26.929Z</time></trkpt><trkpt lat="43.7710917" lon="11.2623467"><ele>54.6</ele><time>2026-04-14T17:29:28.929Z</time></trkpt><trkpt lat="43.7711883" lon="11.2624283"><ele>54.8</ele><time>2026-04-14T17:29:30.929Z</time></trkpt><trkpt lat="43.7713067" lon="11.2625017"><ele>55.0</ele><time>2026-04-14T17:29:32.929Z</time></trkpt><trkpt lat="43.77137" lon="11.2625233"><ele>55.166666666666664</ele><time>2026-04-14T17:29:33.929Z</time></trkpt><trkpt lat="43.7714517" lon="11.2625533"><ele>55.33333333333333</ele><time>2026-04-14T17:29:35.929Z</time></trkpt><trkpt lat="43.7715117" lon="11.2625833"><ele>55.5</ele><time>2026-04-14T17:29:37.929Z</time></trkpt><trkpt lat="43.77158" lon="11.2626183"><ele>55.66666666666667</ele><time>2026-04-14T17:29:39.929Z</time></trkpt><trkpt lat="43.7716533" lon="11.262675"><ele>55.833333333333336</ele><time>2026-04-14T17:29:41.929Z</time></trkpt><trkpt lat="43.7717317" lon="11.2627383"><ele>56.0</ele><time>2026-04-14T17:29:44.929Z</time></trkpt><trkpt lat="43.771795" lon="11.2627767"><ele>56.00000000000001</ele><time>2026-04-14T17:29:46.929Z</time></trkpt><trkpt lat="43.771855" lon="11.2628167"><ele>56.0</ele><time>2026-04-14T17:29:49.93Z</time></trkpt><trkpt lat="43.7719167" lon="11.2628583"><ele>56.0</ele><time>2026-04-14T17:29:52.929Z</time></trkpt><trkpt lat="43.7720033" lon="11.2629167"><ele>56.0</ele><time>2026-04-14T17:29:55.929Z</time></trkpt><trkpt lat="43.7720733" lon="11.2629633"><ele>56.00000000000001</ele><time>2026-04-14T17:29:57.929Z</time></trkpt><trkpt lat="43.772135" lon="11.263005"><ele>56.0</ele><time>2026-04-14T17:29:59.929Z</time></trkpt><trkpt lat="43.7722083" lon="11.2630533"><ele>56.50000000000001</ele><time>2026-04-14T17:30:02.929Z</time></trkpt><trkpt lat="43.772275" lon="11.2631"><ele>57.0</ele><time>2026-04-14T17:30:05.931Z</time></trkpt><trkpt lat="43.77234" lon="11.26314"><ele>57.5</ele><time>2026-04-14T17:30:07.93Z</time></trkpt><trkpt lat="43.7724167" lon="11.2631717"><ele>58.0</ele><time>2026-04-14T17:30:09.931Z</time></trkpt><trkpt lat="43.772505" lon="11.26321"><ele>58.50000000000001</ele><time>2026-04-14T17:30:11.93Z</time></trkpt><trkpt lat="43.772575" lon="11.2632533"><ele>59.0</ele><time>2026-04-14T17:30:13.931Z</time></trkpt><trkpt lat="43.77264" lon="11.2632867"><ele>59.00000000000001</ele><time>2026-04-14T17:30:15.93Z</time></trkpt><trkpt lat="43.772705" lon="11.2633233"><ele>59.0</ele><time>2026-04-14T17:30:18.93Z</time></trkpt><trkpt lat="43.772775" lon="11.2633733"><ele>59.0</ele><time>2026-04-14T17:30:21.93Z</time></trkpt><trkpt lat="43.7728483" lon="11.2634233"><ele>59.0</ele><time>2026-04-14T17:30:24.93Z</time></trkpt><trkpt lat="43.7729167" lon="11.2634717"><ele>59.00000000000001</ele><time>2026-04-14T17:30:26.93Z</time></trkpt><trkpt lat="43.7729817" lon="11.2635183"><ele>59.0</ele><time>2026-04-14T17:30:28.93Z</time></trkpt><trkpt lat="43.77305" lon="11.2635667"><ele>59.00000000000001</ele><time>2026-04-14T17:30:30.93Z</time></trkpt><trkpt lat="43.773115" lon="11.2636117"><ele>59.0</ele><time>2026-04-14T17:30:32.93Z</time></trkpt><trkpt lat="43.7731883" lon="11.2636633"><ele>59.0</ele><time>2026-04-14T17:30:35.93Z</time></trkpt><trkpt lat="43.7732483" lon="11.263705"><ele>59.0</ele><time>2026-04-14T17:30:38.93Z</time></trkpt><trkpt lat="43.7733133" lon="11.26375"><ele>59.00000000000001</ele><time>2026-04-14T17:30:41.931Z</time></trkpt><trkpt lat="43.7733883" lon="11.263805"><ele>59.0</ele><time>2026-04-14T17:30:44.93Z</time></trkpt><trkpt lat="43.7734533" lon="11.2638483"><ele>58.833333333333336</ele><time>2026-04-14T17:30:47.93Z</time></trkpt><trkpt lat="43.7735267" lon="11.2639017"><ele>58.66666666666667</ele><time>2026-04-14T17:30:51.93Z</time></trkpt><trkpt lat="43.7736083" lon="11.2638483"><ele>58.5</ele><time>2026-04-14T17:30:54.93Z</time></trkpt><trkpt lat="43.7736867" lon="11.2638117"><ele>58.33333333333333</ele><time>2026-04-14T17:30:57.93Z</time></trkpt><trkpt lat="43.7737467" lon="11.2637617"><ele>58.166666666666664</ele><time>2026-04-14T17:31:01.931Z</time></trkpt><trkpt lat="43.7737983" lon="11.2636967"><ele>58.0</ele><time>2026-04-14T17:31:04.93Z</time></trkpt><trkpt lat="43.77377" lon="11.2636133"><ele>57.99999999999999</ele><time>2026-04-14T17:31:09.93Z</time></trkpt><trkpt lat="43.7737083" lon="11.26358"><ele>58.0</ele><time>2026-04-14T17:31:11.931Z</time></trkpt><trkpt lat="43.7736417" lon="11.26354"><ele>58.0</ele><time>2026-04-14T17:31:15.93Z</time></trkpt><trkpt lat="43.7735833" lon="11.2634583"><ele>58.0</ele><time>2026-04-14T17:31:19.93Z</time></trkpt><trkpt lat="43.7735133" lon="11.2633933"><ele>57.99999999999999</ele><time>2026-04-14T17:31:24.93Z</time></trkpt><trkpt lat="43.77359" lon="11.2633283"><ele>58.0</ele><time>2026-04-14T17:31:28.93Z</time></trkpt><trkpt lat="43.773615" lon="11.26322"><ele>58.0</ele><time>2026-04-14T17:31:30.93Z</time></trkpt><trkpt lat="43.7736283" lon="11.263105"><ele>57.0</ele><time>2026-04-14T17:31:32.931Z</time></trkpt><trkpt lat="43.7736733" lon="11.2630167"><ele>57.0</ele><time>2026-04-14T17:31:34.93Z</time></trkpt></trkseg></trk></gpx>